<?xml version="1.0" encoding="UTF-8" standalone="no" ?>
<gpx xmlns="http://www.topografix.com/GPX/1/1" xmlns:xsi="http://www.w3.org/2001/XMLSchema-instance" xsi:schemaLocation="http://www.topografix.com/GPX/1/1 http://www.topografix.com/GPX/1/1/gpx.xsd" version="1.1" creator="VisuGPX - https://www.visugpx.com">
  <metadata>
    <name>Velo sous Ceuse </name>
    <desc><![CDATA[gap/Pellautier/Sigoyer/Col des Guerins /Talalrd/Naffes/Gap]]></desc>
  </metadata>
  <trk>
    <name><![CDATA[N°34 Gap/Pelleutier/Sigoyer/Col des Guerins/Tallard]]></name>
    <trkseg>
      <trkpt lat="44.55899" lon="6.07473">
        <ele>609.6132813</ele>
        <time>2011-11-27T09:40:05Z</time>
      </trkpt>
      <trkpt lat="44.55878" lon="6.0748">
        <ele>610.5744629</ele>
        <time>2011-11-27T09:41:01Z</time>
      </trkpt>
      <trkpt lat="44.55868" lon="6.07471">
        <ele>613.9389648</ele>
        <time>2011-11-27T09:41:06Z</time>
      </trkpt>
      <trkpt lat="44.55865" lon="6.07468">
        <ele>618.2648926</ele>
        <time>2011-11-27T09:41:07Z</time>
      </trkpt>
      <trkpt lat="44.55863" lon="6.07466">
        <ele>622.1103516</ele>
        <time>2011-11-27T09:41:08Z</time>
      </trkpt>
      <trkpt lat="44.55861" lon="6.07464">
        <ele>626.4362793</ele>
        <time>2011-11-27T09:41:09Z</time>
      </trkpt>
      <trkpt lat="44.55859" lon="6.07462">
        <ele>629.8007813</ele>
        <time>2011-11-27T09:41:10Z</time>
      </trkpt>
      <trkpt lat="44.55857" lon="6.07461">
        <ele>633.1652832</ele>
        <time>2011-11-27T09:41:11Z</time>
      </trkpt>
      <trkpt lat="44.55856" lon="6.0746">
        <ele>636.5302734</ele>
        <time>2011-11-27T09:41:12Z</time>
      </trkpt>
      <trkpt lat="44.55854" lon="6.07459">
        <ele>636.5302734</ele>
        <time>2011-11-27T09:41:13Z</time>
      </trkpt>
      <trkpt lat="44.5585" lon="6.07455">
        <ele>639.8947754</ele>
        <time>2011-11-27T09:41:15Z</time>
      </trkpt>
      <trkpt lat="44.55848" lon="6.07453">
        <ele>643.2592773</ele>
        <time>2011-11-27T09:41:16Z</time>
      </trkpt>
      <trkpt lat="44.55845" lon="6.07451">
        <ele>646.1433105</ele>
        <time>2011-11-27T09:41:17Z</time>
      </trkpt>
      <trkpt lat="44.55842" lon="6.07449">
        <ele>649.5078125</ele>
        <time>2011-11-27T09:41:18Z</time>
      </trkpt>
      <trkpt lat="44.55836" lon="6.07444">
        <ele>654.795166</ele>
        <time>2011-11-27T09:41:20Z</time>
      </trkpt>
      <trkpt lat="44.55829" lon="6.0744">
        <ele>660.0822754</ele>
        <time>2011-11-27T09:41:22Z</time>
      </trkpt>
      <trkpt lat="44.55822" lon="6.07437">
        <ele>664.888916</ele>
        <time>2011-11-27T09:41:24Z</time>
      </trkpt>
      <trkpt lat="44.55818" lon="6.07443">
        <ele>667.2922363</ele>
        <time>2011-11-27T09:41:25Z</time>
      </trkpt>
      <trkpt lat="44.55805" lon="6.07443">
        <ele>673.5410156</ele>
        <time>2011-11-27T09:41:28Z</time>
      </trkpt>
      <trkpt lat="44.55795" lon="6.07448">
        <ele>676.9055176</ele>
        <time>2011-11-27T09:41:30Z</time>
      </trkpt>
      <trkpt lat="44.55785" lon="6.07452">
        <ele>680.2700195</ele>
        <time>2011-11-27T09:41:32Z</time>
      </trkpt>
      <trkpt lat="44.55771" lon="6.07457">
        <ele>685.0769043</ele>
        <time>2011-11-27T09:41:35Z</time>
      </trkpt>
      <trkpt lat="44.55766" lon="6.07459">
        <ele>686.5187988</ele>
        <time>2011-11-27T09:41:36Z</time>
      </trkpt>
      <trkpt lat="44.55749" lon="6.07477">
        <ele>690.8444824</ele>
        <time>2011-11-27T09:41:40Z</time>
      </trkpt>
      <trkpt lat="44.5573" lon="6.07508">
        <ele>696.6125488</ele>
        <time>2011-11-27T09:41:45Z</time>
      </trkpt>
      <trkpt lat="44.55717" lon="6.07536">
        <ele>699.4963379</ele>
        <time>2011-11-27T09:41:49Z</time>
      </trkpt>
      <trkpt lat="44.55703" lon="6.07566">
        <ele>702.861084</ele>
        <time>2011-11-27T09:41:53Z</time>
      </trkpt>
      <trkpt lat="44.55691" lon="6.07589">
        <ele>704.3032227</ele>
        <time>2011-11-27T09:41:56Z</time>
      </trkpt>
      <trkpt lat="44.55668" lon="6.07632">
        <ele>708.1484375</ele>
        <time>2011-11-27T09:42:03Z</time>
      </trkpt>
      <trkpt lat="44.55666" lon="6.07637">
        <ele>709.1096191</ele>
        <time>2011-11-27T09:42:05Z</time>
      </trkpt>
      <trkpt lat="44.55661" lon="6.07646">
        <ele>710.5515137</ele>
        <time>2011-11-27T09:42:08Z</time>
      </trkpt>
      <trkpt lat="44.55644" lon="6.07649">
        <ele>712.4741211</ele>
        <time>2011-11-27T09:42:13Z</time>
      </trkpt>
      <trkpt lat="44.55638" lon="6.07649">
        <ele>716.3195801</ele>
        <time>2011-11-27T09:42:23Z</time>
      </trkpt>
      <trkpt lat="44.55586" lon="6.07585">
        <ele>718.7229004</ele>
        <time>2011-11-27T09:42:31Z</time>
      </trkpt>
      <trkpt lat="44.55581" lon="6.07579">
        <ele>719.6843262</ele>
        <time>2011-11-27T09:42:33Z</time>
      </trkpt>
      <trkpt lat="44.55545" lon="6.07536">
        <ele>722.5681152</ele>
        <time>2011-11-27T09:42:46Z</time>
      </trkpt>
      <trkpt lat="44.55541" lon="6.07531">
        <ele>720.6455078</ele>
        <time>2011-11-27T09:42:48Z</time>
      </trkpt>
      <trkpt lat="44.5554" lon="6.07529">
        <ele>724.0100098</ele>
        <time>2011-11-27T09:42:49Z</time>
      </trkpt>
      <trkpt lat="44.55503" lon="6.07475">
        <ele>725.9326172</ele>
        <time>2011-11-27T09:43:03Z</time>
      </trkpt>
      <trkpt lat="44.55494" lon="6.07466">
        <ele>727.3747559</ele>
        <time>2011-11-27T09:43:07Z</time>
      </trkpt>
      <trkpt lat="44.55454" lon="6.0741">
        <ele>727.8552246</ele>
        <time>2011-11-27T09:43:23Z</time>
      </trkpt>
      <trkpt lat="44.55398" lon="6.07337">
        <ele>728.8166504</ele>
        <time>2011-11-27T09:43:44Z</time>
      </trkpt>
      <trkpt lat="44.55368" lon="6.07316">
        <ele>729.777832</ele>
        <time>2011-11-27T09:43:59Z</time>
      </trkpt>
      <trkpt lat="44.55368" lon="6.07316">
        <ele>729.777832</ele>
        <time>2011-11-27T09:44:18Z</time>
      </trkpt>
      <trkpt lat="44.55368" lon="6.07316">
        <ele>729.777832</ele>
        <time>2011-11-27T09:44:38Z</time>
      </trkpt>
      <trkpt lat="44.55368" lon="6.07316">
        <ele>730.7392578</ele>
        <time>2011-11-27T09:45:21Z</time>
      </trkpt>
      <trkpt lat="44.55368" lon="6.07316">
        <ele>730.2585449</ele>
        <time>2011-11-27T09:45:31Z</time>
      </trkpt>
      <trkpt lat="44.5533" lon="6.07274">
        <ele>731.2199707</ele>
        <time>2011-11-27T09:45:45Z</time>
      </trkpt>
      <trkpt lat="44.55262" lon="6.07193">
        <ele>731.7004395</ele>
        <time>2011-11-27T09:46:05Z</time>
      </trkpt>
      <trkpt lat="44.55202" lon="6.07113">
        <ele>733.1425781</ele>
        <time>2011-11-27T09:46:24Z</time>
      </trkpt>
      <trkpt lat="44.55141" lon="6.07034">
        <ele>734.1040039</ele>
        <time>2011-11-27T09:46:46Z</time>
      </trkpt>
      <trkpt lat="44.55073" lon="6.0695">
        <ele>735.5458984</ele>
        <time>2011-11-27T09:47:10Z</time>
      </trkpt>
      <trkpt lat="44.55025" lon="6.06891">
        <ele>735.5458984</ele>
        <time>2011-11-27T09:47:26Z</time>
      </trkpt>
      <trkpt lat="44.54966" lon="6.06819">
        <ele>736.0266113</ele>
        <time>2011-11-27T09:47:45Z</time>
      </trkpt>
      <trkpt lat="44.54897" lon="6.06735">
        <ele>735.5458984</ele>
        <time>2011-11-27T09:48:06Z</time>
      </trkpt>
      <trkpt lat="44.54828" lon="6.06652">
        <ele>736.0266113</ele>
        <time>2011-11-27T09:48:28Z</time>
      </trkpt>
      <trkpt lat="44.54764" lon="6.06577">
        <ele>735.5458984</ele>
        <time>2011-11-27T09:48:50Z</time>
      </trkpt>
      <trkpt lat="44.54722" lon="6.06529">
        <ele>735.5458984</ele>
        <time>2011-11-27T09:49:05Z</time>
      </trkpt>
      <trkpt lat="44.5472" lon="6.06527">
        <ele>735.0654297</ele>
        <time>2011-11-27T09:49:06Z</time>
      </trkpt>
      <trkpt lat="44.54688" lon="6.06489">
        <ele>735.5458984</ele>
        <time>2011-11-27T09:49:18Z</time>
      </trkpt>
      <trkpt lat="44.54662" lon="6.06458">
        <ele>736.0266113</ele>
        <time>2011-11-27T09:49:26Z</time>
      </trkpt>
      <trkpt lat="44.54599" lon="6.06376">
        <ele>736.5073242</ele>
        <time>2011-11-27T09:49:46Z</time>
      </trkpt>
      <trkpt lat="44.54574" lon="6.06354">
        <ele>736.0266113</ele>
        <time>2011-11-27T09:49:53Z</time>
      </trkpt>
      <trkpt lat="44.54573" lon="6.06317">
        <ele>736.987793</ele>
        <time>2011-11-27T09:49:57Z</time>
      </trkpt>
      <trkpt lat="44.54561" lon="6.06299">
        <ele>737.9492188</ele>
        <time>2011-11-27T09:50:03Z</time>
      </trkpt>
      <trkpt lat="44.54524" lon="6.06261">
        <ele>737.4685059</ele>
        <time>2011-11-27T09:50:16Z</time>
      </trkpt>
      <trkpt lat="44.54477" lon="6.06201">
        <ele>738.9106445</ele>
        <time>2011-11-27T09:50:32Z</time>
      </trkpt>
      <trkpt lat="44.5442" lon="6.06129">
        <ele>738.9106445</ele>
        <time>2011-11-27T09:50:51Z</time>
      </trkpt>
      <trkpt lat="44.54357" lon="6.06052">
        <ele>735.5458984</ele>
        <time>2011-11-27T09:51:05Z</time>
      </trkpt>
      <trkpt lat="44.54319" lon="6.06004">
        <ele>734.5847168</ele>
        <time>2011-11-27T09:51:16Z</time>
      </trkpt>
      <trkpt lat="44.54313" lon="6.05996">
        <ele>734.5847168</ele>
        <time>2011-11-27T09:51:18Z</time>
      </trkpt>
      <trkpt lat="44.54276" lon="6.0595">
        <ele>734.1040039</ele>
        <time>2011-11-27T09:51:29Z</time>
      </trkpt>
      <trkpt lat="44.54233" lon="6.05897">
        <ele>735.5458984</ele>
        <time>2011-11-27T09:51:45Z</time>
      </trkpt>
      <trkpt lat="44.54177" lon="6.0584">
        <ele>738.4299316</ele>
        <time>2011-11-27T09:52:09Z</time>
      </trkpt>
      <trkpt lat="44.54164" lon="6.05829">
        <ele>740.3525391</ele>
        <time>2011-11-27T09:52:22Z</time>
      </trkpt>
      <trkpt lat="44.54117" lon="6.05784">
        <ele>741.7944336</ele>
        <time>2011-11-27T09:52:39Z</time>
      </trkpt>
      <trkpt lat="44.54093" lon="6.05755">
        <ele>742.2751465</ele>
        <time>2011-11-27T09:52:56Z</time>
      </trkpt>
      <trkpt lat="44.54093" lon="6.05755">
        <ele>743.2363281</ele>
        <time>2011-11-27T09:53:51Z</time>
      </trkpt>
      <trkpt lat="44.54088" lon="6.05749">
        <ele>742.7558594</ele>
        <time>2011-11-27T09:53:53Z</time>
      </trkpt>
      <trkpt lat="44.54049" lon="6.05704">
        <ele>745.1589355</ele>
        <time>2011-11-27T09:54:10Z</time>
      </trkpt>
      <trkpt lat="44.54011" lon="6.05657">
        <ele>747.081543</ele>
        <time>2011-11-27T09:54:27Z</time>
      </trkpt>
      <trkpt lat="44.53959" lon="6.05595">
        <ele>749.9658203</ele>
        <time>2011-11-27T09:54:50Z</time>
      </trkpt>
      <trkpt lat="44.53913" lon="6.0554">
        <ele>751.8884277</ele>
        <time>2011-11-27T09:55:10Z</time>
      </trkpt>
      <trkpt lat="44.53862" lon="6.05476">
        <ele>754.7722168</ele>
        <time>2011-11-27T09:55:33Z</time>
      </trkpt>
      <trkpt lat="44.53811" lon="6.05412">
        <ele>758.1369629</ele>
        <time>2011-11-27T09:55:57Z</time>
      </trkpt>
      <trkpt lat="44.53766" lon="6.05351">
        <ele>760.0593262</ele>
        <time>2011-11-27T09:56:19Z</time>
      </trkpt>
      <trkpt lat="44.53751" lon="6.05298">
        <ele>761.020752</ele>
        <time>2011-11-27T09:56:33Z</time>
      </trkpt>
      <trkpt lat="44.53776" lon="6.05239">
        <ele>764.385498</ele>
        <time>2011-11-27T09:56:52Z</time>
      </trkpt>
      <trkpt lat="44.53763" lon="6.05191">
        <ele>765.3469238</ele>
        <time>2011-11-27T09:57:07Z</time>
      </trkpt>
      <trkpt lat="44.5378" lon="6.05162">
        <ele>766.3081055</ele>
        <time>2011-11-27T09:57:19Z</time>
      </trkpt>
      <trkpt lat="44.53763" lon="6.05049">
        <ele>767.75</ele>
        <time>2011-11-27T09:57:38Z</time>
      </trkpt>
      <trkpt lat="44.5376" lon="6.05022">
        <ele>767.2695313</ele>
        <time>2011-11-27T09:57:43Z</time>
      </trkpt>
      <trkpt lat="44.53751" lon="6.04994">
        <ele>767.2695313</ele>
        <time>2011-11-27T09:57:48Z</time>
      </trkpt>
      <trkpt lat="44.53732" lon="6.0496">
        <ele>766.3081055</ele>
        <time>2011-11-27T09:57:54Z</time>
      </trkpt>
      <trkpt lat="44.53682" lon="6.04902">
        <ele>762.9433594</ele>
        <time>2011-11-27T09:58:03Z</time>
      </trkpt>
      <trkpt lat="44.53599" lon="6.04763">
        <ele>759.5788574</ele>
        <time>2011-11-27T09:58:20Z</time>
      </trkpt>
      <trkpt lat="44.53521" lon="6.04629">
        <ele>758.1369629</ele>
        <time>2011-11-27T09:58:37Z</time>
      </trkpt>
      <trkpt lat="44.53442" lon="6.04505">
        <ele>758.1369629</ele>
        <time>2011-11-27T09:58:56Z</time>
      </trkpt>
      <trkpt lat="44.53337" lon="6.04395">
        <ele>759.0981445</ele>
        <time>2011-11-27T09:59:20Z</time>
      </trkpt>
      <trkpt lat="44.53285" lon="6.04364">
        <ele>757.65625</ele>
        <time>2011-11-27T09:59:31Z</time>
      </trkpt>
      <trkpt lat="44.53258" lon="6.04258">
        <ele>752.3688965</ele>
        <time>2011-11-27T09:59:39Z</time>
      </trkpt>
      <trkpt lat="44.53255" lon="6.04246">
        <ele>752.3688965</ele>
        <time>2011-11-27T09:59:40Z</time>
      </trkpt>
      <trkpt lat="44.53235" lon="6.04164">
        <ele>749.9658203</ele>
        <time>2011-11-27T09:59:47Z</time>
      </trkpt>
      <trkpt lat="44.53197" lon="6.0404">
        <ele>749.9658203</ele>
        <time>2011-11-27T10:00:00Z</time>
      </trkpt>
      <trkpt lat="44.53182" lon="6.04011">
        <ele>750.4465332</ele>
        <time>2011-11-27T10:00:05Z</time>
      </trkpt>
      <trkpt lat="44.53146" lon="6.0397">
        <ele>751.8884277</ele>
        <time>2011-11-27T10:00:19Z</time>
      </trkpt>
      <trkpt lat="44.5311" lon="6.03954">
        <ele>754.7722168</ele>
        <time>2011-11-27T10:00:34Z</time>
      </trkpt>
      <trkpt lat="44.53076" lon="6.03923">
        <ele>758.1369629</ele>
        <time>2011-11-27T10:00:53Z</time>
      </trkpt>
      <trkpt lat="44.53049" lon="6.0388">
        <ele>760.5400391</ele>
        <time>2011-11-27T10:01:12Z</time>
      </trkpt>
      <trkpt lat="44.53024" lon="6.0385">
        <ele>762.9433594</ele>
        <time>2011-11-27T10:01:28Z</time>
      </trkpt>
      <trkpt lat="44.52998" lon="6.03823">
        <ele>765.8276367</ele>
        <time>2011-11-27T10:01:43Z</time>
      </trkpt>
      <trkpt lat="44.52966" lon="6.03783">
        <ele>768.7114258</ele>
        <time>2011-11-27T10:02:04Z</time>
      </trkpt>
      <trkpt lat="44.52935" lon="6.03751">
        <ele>772.0759277</ele>
        <time>2011-11-27T10:02:23Z</time>
      </trkpt>
      <trkpt lat="44.52898" lon="6.0372">
        <ele>774.9599609</ele>
        <time>2011-11-27T10:02:44Z</time>
      </trkpt>
      <trkpt lat="44.52886" lon="6.03675">
        <ele>777.84375</ele>
        <time>2011-11-27T10:03:00Z</time>
      </trkpt>
      <trkpt lat="44.52899" lon="6.03639">
        <ele>781.2087402</ele>
        <time>2011-11-27T10:03:16Z</time>
      </trkpt>
      <trkpt lat="44.52911" lon="6.03582">
        <ele>784.0925293</ele>
        <time>2011-11-27T10:03:38Z</time>
      </trkpt>
      <trkpt lat="44.52894" lon="6.03535">
        <ele>786.4958496</ele>
        <time>2011-11-27T10:03:57Z</time>
      </trkpt>
      <trkpt lat="44.52864" lon="6.03504">
        <ele>787.9377441</ele>
        <time>2011-11-27T10:04:14Z</time>
      </trkpt>
      <trkpt lat="44.52826" lon="6.03461">
        <ele>787.9377441</ele>
        <time>2011-11-27T10:04:32Z</time>
      </trkpt>
      <trkpt lat="44.52766" lon="6.03428">
        <ele>787.9377441</ele>
        <time>2011-11-27T10:04:50Z</time>
      </trkpt>
      <trkpt lat="44.52724" lon="6.03434">
        <ele>787.9377441</ele>
        <time>2011-11-27T10:05:01Z</time>
      </trkpt>
      <trkpt lat="44.52707" lon="6.03437">
        <ele>787.9377441</ele>
        <time>2011-11-27T10:05:05Z</time>
      </trkpt>
      <trkpt lat="44.52667" lon="6.03428">
        <ele>787.9377441</ele>
        <time>2011-11-27T10:05:15Z</time>
      </trkpt>
      <trkpt lat="44.52623" lon="6.03374">
        <ele>788.8991699</ele>
        <time>2011-11-27T10:05:31Z</time>
      </trkpt>
      <trkpt lat="44.52631" lon="6.03331">
        <ele>790.8215332</ele>
        <time>2011-11-27T10:05:43Z</time>
      </trkpt>
      <trkpt lat="44.52679" lon="6.03302">
        <ele>793.7055664</ele>
        <time>2011-11-27T10:06:02Z</time>
      </trkpt>
      <trkpt lat="44.52717" lon="6.03234">
        <ele>796.1091309</ele>
        <time>2011-11-27T10:06:25Z</time>
      </trkpt>
      <trkpt lat="44.52728" lon="6.03177">
        <ele>798.512207</ele>
        <time>2011-11-27T10:06:41Z</time>
      </trkpt>
      <trkpt lat="44.52695" lon="6.03148">
        <ele>800.4350586</ele>
        <time>2011-11-27T10:06:56Z</time>
      </trkpt>
      <trkpt lat="44.52643" lon="6.0309">
        <ele>803.3188477</ele>
        <time>2011-11-27T10:07:16Z</time>
      </trkpt>
      <trkpt lat="44.52656" lon="6.03018">
        <ele>805.2414551</ele>
        <time>2011-11-27T10:07:35Z</time>
      </trkpt>
      <trkpt lat="44.5268" lon="6.02939">
        <ele>807.1640625</ele>
        <time>2011-11-27T10:07:56Z</time>
      </trkpt>
      <trkpt lat="44.52703" lon="6.02857">
        <ele>808.605957</ele>
        <time>2011-11-27T10:08:17Z</time>
      </trkpt>
      <trkpt lat="44.52714" lon="6.02784">
        <ele>810.5285645</ele>
        <time>2011-11-27T10:08:35Z</time>
      </trkpt>
      <trkpt lat="44.52712" lon="6.0271">
        <ele>811.4899902</ele>
        <time>2011-11-27T10:08:51Z</time>
      </trkpt>
      <trkpt lat="44.52738" lon="6.0265">
        <ele>812.9321289</ele>
        <time>2011-11-27T10:09:08Z</time>
      </trkpt>
      <trkpt lat="44.52769" lon="6.02587">
        <ele>813.8933105</ele>
        <time>2011-11-27T10:09:26Z</time>
      </trkpt>
      <trkpt lat="44.5278" lon="6.02518">
        <ele>814.8547363</ele>
        <time>2011-11-27T10:09:42Z</time>
      </trkpt>
      <trkpt lat="44.52806" lon="6.02449">
        <ele>815.8161621</ele>
        <time>2011-11-27T10:10:00Z</time>
      </trkpt>
      <trkpt lat="44.52813" lon="6.02369">
        <ele>817.2580566</ele>
        <time>2011-11-27T10:10:20Z</time>
      </trkpt>
      <trkpt lat="44.52782" lon="6.02352">
        <ele>818.6999512</ele>
        <time>2011-11-27T10:10:34Z</time>
      </trkpt>
      <trkpt lat="44.52757" lon="6.02371">
        <ele>822.0644531</ele>
        <time>2011-11-27T10:10:48Z</time>
      </trkpt>
      <trkpt lat="44.52723" lon="6.02405">
        <ele>825.4289551</ele>
        <time>2011-11-27T10:11:09Z</time>
      </trkpt>
      <trkpt lat="44.52693" lon="6.02428">
        <ele>827.8322754</ele>
        <time>2011-11-27T10:11:26Z</time>
      </trkpt>
      <trkpt lat="44.52671" lon="6.02451">
        <ele>831.1972656</ele>
        <time>2011-11-27T10:11:41Z</time>
      </trkpt>
      <trkpt lat="44.52645" lon="6.02489">
        <ele>834.5617676</ele>
        <time>2011-11-27T10:12:00Z</time>
      </trkpt>
      <trkpt lat="44.52621" lon="6.02514">
        <ele>837.9262695</ele>
        <time>2011-11-27T10:12:16Z</time>
      </trkpt>
      <trkpt lat="44.52594" lon="6.02539">
        <ele>841.2907715</ele>
        <time>2011-11-27T10:12:34Z</time>
      </trkpt>
      <trkpt lat="44.52571" lon="6.02563">
        <ele>844.1750488</ele>
        <time>2011-11-27T10:12:51Z</time>
      </trkpt>
      <trkpt lat="44.52548" lon="6.02592">
        <ele>846.5783691</ele>
        <time>2011-11-27T10:13:07Z</time>
      </trkpt>
      <trkpt lat="44.52517" lon="6.02618">
        <ele>849.9428711</ele>
        <time>2011-11-27T10:13:27Z</time>
      </trkpt>
      <trkpt lat="44.52485" lon="6.02622">
        <ele>852.8266602</ele>
        <time>2011-11-27T10:13:44Z</time>
      </trkpt>
      <trkpt lat="44.52472" lon="6.02618">
        <ele>854.7492676</ele>
        <time>2011-11-27T10:13:51Z</time>
      </trkpt>
      <trkpt lat="44.52435" lon="6.02615">
        <ele>858.1140137</ele>
        <time>2011-11-27T10:14:12Z</time>
      </trkpt>
      <trkpt lat="44.52398" lon="6.02615">
        <ele>860.9980469</ele>
        <time>2011-11-27T10:14:32Z</time>
      </trkpt>
      <trkpt lat="44.52366" lon="6.02611">
        <ele>864.3625488</ele>
        <time>2011-11-27T10:14:49Z</time>
      </trkpt>
      <trkpt lat="44.52332" lon="6.0261">
        <ele>867.7270508</ele>
        <time>2011-11-27T10:15:07Z</time>
      </trkpt>
      <trkpt lat="44.52303" lon="6.02607">
        <ele>870.611084</ele>
        <time>2011-11-27T10:15:23Z</time>
      </trkpt>
      <trkpt lat="44.52273" lon="6.02592">
        <ele>873.9755859</ele>
        <time>2011-11-27T10:15:40Z</time>
      </trkpt>
      <trkpt lat="44.52242" lon="6.02579">
        <ele>877.3405762</ele>
        <time>2011-11-27T10:15:58Z</time>
      </trkpt>
      <trkpt lat="44.52203" lon="6.02563">
        <ele>880.2243652</ele>
        <time>2011-11-27T10:16:19Z</time>
      </trkpt>
      <trkpt lat="44.52176" lon="6.02541">
        <ele>883.5888672</ele>
        <time>2011-11-27T10:16:37Z</time>
      </trkpt>
      <trkpt lat="44.5215" lon="6.0252">
        <ele>886.4729004</ele>
        <time>2011-11-27T10:16:54Z</time>
      </trkpt>
      <trkpt lat="44.52117" lon="6.02501">
        <ele>889.8374023</ele>
        <time>2011-11-27T10:17:14Z</time>
      </trkpt>
      <trkpt lat="44.52091" lon="6.02472">
        <ele>892.2409668</ele>
        <time>2011-11-27T10:17:32Z</time>
      </trkpt>
      <trkpt lat="44.52075" lon="6.02449">
        <ele>895.6054688</ele>
        <time>2011-11-27T10:17:45Z</time>
      </trkpt>
      <trkpt lat="44.52041" lon="6.02416">
        <ele>898.9699707</ele>
        <time>2011-11-27T10:18:08Z</time>
      </trkpt>
      <trkpt lat="44.52025" lon="6.02375">
        <ele>902.3344727</ele>
        <time>2011-11-27T10:18:26Z</time>
      </trkpt>
      <trkpt lat="44.52025" lon="6.02372">
        <ele>902.3344727</ele>
        <time>2011-11-27T10:18:27Z</time>
      </trkpt>
      <trkpt lat="44.52029" lon="6.02328">
        <ele>905.2185059</ele>
        <time>2011-11-27T10:18:44Z</time>
      </trkpt>
      <trkpt lat="44.52021" lon="6.02284">
        <ele>907.6218262</ele>
        <time>2011-11-27T10:19:03Z</time>
      </trkpt>
      <trkpt lat="44.51988" lon="6.02246">
        <ele>910.9865723</ele>
        <time>2011-11-27T10:19:26Z</time>
      </trkpt>
      <trkpt lat="44.51954" lon="6.02216">
        <ele>912.9091797</ele>
        <time>2011-11-27T10:19:46Z</time>
      </trkpt>
      <trkpt lat="44.51894" lon="6.02233">
        <ele>913.8703613</ele>
        <time>2011-11-27T10:20:05Z</time>
      </trkpt>
      <trkpt lat="44.51837" lon="6.02229">
        <ele>914.3510742</ele>
        <time>2011-11-27T10:20:24Z</time>
      </trkpt>
      <trkpt lat="44.51789" lon="6.02235">
        <ele>914.8317871</ele>
        <time>2011-11-27T10:20:40Z</time>
      </trkpt>
      <trkpt lat="44.51741" lon="6.02224">
        <ele>916.2736816</ele>
        <time>2011-11-27T10:21:01Z</time>
      </trkpt>
      <trkpt lat="44.51694" lon="6.02197">
        <ele>917.7155762</ele>
        <time>2011-11-27T10:21:22Z</time>
      </trkpt>
      <trkpt lat="44.51669" lon="6.02203">
        <ele>918.677002</ele>
        <time>2011-11-27T10:21:39Z</time>
      </trkpt>
      <trkpt lat="44.51612" lon="6.02194">
        <ele>920.5996094</ele>
        <time>2011-11-27T10:21:57Z</time>
      </trkpt>
      <trkpt lat="44.51573" lon="6.0217">
        <ele>923.4836426</ele>
        <time>2011-11-27T10:22:17Z</time>
      </trkpt>
      <trkpt lat="44.51537" lon="6.02135">
        <ele>926.8483887</ele>
        <time>2011-11-27T10:22:39Z</time>
      </trkpt>
      <trkpt lat="44.51501" lon="6.02099">
        <ele>929.2514648</ele>
        <time>2011-11-27T10:23:00Z</time>
      </trkpt>
      <trkpt lat="44.51467" lon="6.02056">
        <ele>932.6162109</ele>
        <time>2011-11-27T10:23:22Z</time>
      </trkpt>
      <trkpt lat="44.51458" lon="6.02007">
        <ele>935.5</ele>
        <time>2011-11-27T10:23:39Z</time>
      </trkpt>
      <trkpt lat="44.51466" lon="6.01954">
        <ele>936.9418945</ele>
        <time>2011-11-27T10:23:58Z</time>
      </trkpt>
      <trkpt lat="44.51502" lon="6.01944">
        <ele>939.3452148</ele>
        <time>2011-11-27T10:24:15Z</time>
      </trkpt>
      <trkpt lat="44.5154" lon="6.01936">
        <ele>941.2680664</ele>
        <time>2011-11-27T10:24:33Z</time>
      </trkpt>
      <trkpt lat="44.51572" lon="6.01922">
        <ele>943.1906738</ele>
        <time>2011-11-27T10:24:50Z</time>
      </trkpt>
      <trkpt lat="44.51609" lon="6.01897">
        <ele>946.074707</ele>
        <time>2011-11-27T10:25:11Z</time>
      </trkpt>
      <trkpt lat="44.51641" lon="6.01871">
        <ele>948.4777832</ele>
        <time>2011-11-27T10:25:30Z</time>
      </trkpt>
      <trkpt lat="44.51654" lon="6.01821">
        <ele>951.3618164</ele>
        <time>2011-11-27T10:25:49Z</time>
      </trkpt>
      <trkpt lat="44.51649" lon="6.01763">
        <ele>953.7651367</ele>
        <time>2011-11-27T10:26:10Z</time>
      </trkpt>
      <trkpt lat="44.51636" lon="6.01716">
        <ele>956.6491699</ele>
        <time>2011-11-27T10:26:28Z</time>
      </trkpt>
      <trkpt lat="44.51632" lon="6.01658">
        <ele>960.0136719</ele>
        <time>2011-11-27T10:26:47Z</time>
      </trkpt>
      <trkpt lat="44.5164" lon="6.01627">
        <ele>960.4943848</ele>
        <time>2011-11-27T10:26:58Z</time>
      </trkpt>
      <trkpt lat="44.51648" lon="6.01601">
        <ele>960.0136719</ele>
        <time>2011-11-27T10:27:04Z</time>
      </trkpt>
      <trkpt lat="44.5165" lon="6.01568">
        <ele>959.0524902</ele>
        <time>2011-11-27T10:27:09Z</time>
      </trkpt>
      <trkpt lat="44.51636" lon="6.01511">
        <ele>960.4943848</ele>
        <time>2011-11-27T10:27:22Z</time>
      </trkpt>
      <trkpt lat="44.51617" lon="6.01465">
        <ele>963.378418</ele>
        <time>2011-11-27T10:27:40Z</time>
      </trkpt>
      <trkpt lat="44.51585" lon="6.01431">
        <ele>965.7817383</ele>
        <time>2011-11-27T10:27:59Z</time>
      </trkpt>
      <trkpt lat="44.51553" lon="6.0138">
        <ele>968.6655273</ele>
        <time>2011-11-27T10:28:21Z</time>
      </trkpt>
      <trkpt lat="44.51552" lon="6.0132">
        <ele>971.0688477</ele>
        <time>2011-11-27T10:28:40Z</time>
      </trkpt>
      <trkpt lat="44.51555" lon="6.01266">
        <ele>974.4335938</ele>
        <time>2011-11-27T10:29:00Z</time>
      </trkpt>
      <trkpt lat="44.51549" lon="6.01212">
        <ele>974.4335938</ele>
        <time>2011-11-27T10:29:18Z</time>
      </trkpt>
      <trkpt lat="44.51548" lon="6.01199">
        <ele>974.9143066</ele>
        <time>2011-11-27T10:29:22Z</time>
      </trkpt>
      <trkpt lat="44.51545" lon="6.01186">
        <ele>974.9143066</ele>
        <time>2011-11-27T10:29:28Z</time>
      </trkpt>
      <trkpt lat="44.51515" lon="6.01149">
        <ele>975.8754883</ele>
        <time>2011-11-27T10:29:44Z</time>
      </trkpt>
      <trkpt lat="44.51501" lon="6.01097">
        <ele>978.2788086</ele>
        <time>2011-11-27T10:30:02Z</time>
      </trkpt>
      <trkpt lat="44.51472" lon="6.01037">
        <ele>981.1628418</ele>
        <time>2011-11-27T10:30:26Z</time>
      </trkpt>
      <trkpt lat="44.51435" lon="6.01012">
        <ele>982.1240234</ele>
        <time>2011-11-27T10:30:44Z</time>
      </trkpt>
      <trkpt lat="44.51385" lon="6.00985">
        <ele>984.5273438</ele>
        <time>2011-11-27T10:31:07Z</time>
      </trkpt>
      <trkpt lat="44.51337" lon="6.00958">
        <ele>986.9304199</ele>
        <time>2011-11-27T10:31:31Z</time>
      </trkpt>
      <trkpt lat="44.51317" lon="6.00944">
        <ele>987.8918457</ele>
        <time>2011-11-27T10:31:41Z</time>
      </trkpt>
      <trkpt lat="44.51271" lon="6.00895">
        <ele>988.8535156</ele>
        <time>2011-11-27T10:32:03Z</time>
      </trkpt>
      <trkpt lat="44.51247" lon="6.00834">
        <ele>989.3339844</ele>
        <time>2011-11-27T10:32:19Z</time>
      </trkpt>
      <trkpt lat="44.51235" lon="6.00743">
        <ele>989.8146973</ele>
        <time>2011-11-27T10:32:39Z</time>
      </trkpt>
      <trkpt lat="44.51221" lon="6.00651">
        <ele>990.7758789</ele>
        <time>2011-11-27T10:33:00Z</time>
      </trkpt>
      <trkpt lat="44.51207" lon="6.00576">
        <ele>991.7373047</ele>
        <time>2011-11-27T10:33:17Z</time>
      </trkpt>
      <trkpt lat="44.51186" lon="6.00458">
        <ele>993.6599121</ele>
        <time>2011-11-27T10:33:44Z</time>
      </trkpt>
      <trkpt lat="44.51174" lon="6.0039">
        <ele>992.6987305</ele>
        <time>2011-11-27T10:33:58Z</time>
      </trkpt>
      <trkpt lat="44.51146" lon="6.00285">
        <ele>994.140625</ele>
        <time>2011-11-27T10:34:20Z</time>
      </trkpt>
      <trkpt lat="44.51117" lon="6.0022">
        <ele>994.140625</ele>
        <time>2011-11-27T10:34:38Z</time>
      </trkpt>
      <trkpt lat="44.51169" lon="6.00081">
        <ele>994.6210938</ele>
        <time>2011-11-27T10:34:57Z</time>
      </trkpt>
      <trkpt lat="44.51154" lon="6.00026">
        <ele>995.1018066</ele>
        <time>2011-11-27T10:35:09Z</time>
      </trkpt>
      <trkpt lat="44.51102" lon="5.99987">
        <ele>996.0632324</ele>
        <time>2011-11-27T10:35:26Z</time>
      </trkpt>
      <trkpt lat="44.51069" lon="5.99938">
        <ele>997.505127</ele>
        <time>2011-11-27T10:35:43Z</time>
      </trkpt>
      <trkpt lat="44.51041" lon="5.99863">
        <ele>999.4277344</ele>
        <time>2011-11-27T10:36:02Z</time>
      </trkpt>
      <trkpt lat="44.51038" lon="5.99796">
        <ele>1000.8696289</ele>
        <time>2011-11-27T10:36:17Z</time>
      </trkpt>
      <trkpt lat="44.51066" lon="5.9973">
        <ele>1001.3503418</ele>
        <time>2011-11-27T10:36:34Z</time>
      </trkpt>
      <trkpt lat="44.511" lon="5.99667">
        <ele>1001.8310547</ele>
        <time>2011-11-27T10:36:51Z</time>
      </trkpt>
      <trkpt lat="44.51085" lon="5.9961">
        <ele>1001.8310547</ele>
        <time>2011-11-27T10:37:03Z</time>
      </trkpt>
      <trkpt lat="44.51035" lon="5.99518">
        <ele>1003.2729492</ele>
        <time>2011-11-27T10:37:25Z</time>
      </trkpt>
      <trkpt lat="44.51002" lon="5.99443">
        <ele>1005.6765137</ele>
        <time>2011-11-27T10:37:45Z</time>
      </trkpt>
      <trkpt lat="44.51001" lon="5.99361">
        <ele>1007.5991211</ele>
        <time>2011-11-27T10:38:04Z</time>
      </trkpt>
      <trkpt lat="44.51004" lon="5.99265">
        <ele>1010.4829102</ele>
        <time>2011-11-27T10:38:26Z</time>
      </trkpt>
      <trkpt lat="44.50971" lon="5.99223">
        <ele>1011.9250488</ele>
        <time>2011-11-27T10:38:41Z</time>
      </trkpt>
      <trkpt lat="44.50922" lon="5.99213">
        <ele>1013.8474121</ele>
        <time>2011-11-27T10:38:57Z</time>
      </trkpt>
      <trkpt lat="44.50863" lon="5.992">
        <ele>1016.2507324</ele>
        <time>2011-11-27T10:39:17Z</time>
      </trkpt>
      <trkpt lat="44.50795" lon="5.99195">
        <ele>1019.1347656</ele>
        <time>2011-11-27T10:39:39Z</time>
      </trkpt>
      <trkpt lat="44.50736" lon="5.99227">
        <ele>1020.0961914</ele>
        <time>2011-11-27T10:39:59Z</time>
      </trkpt>
      <trkpt lat="44.50694" lon="5.993">
        <ele>1020.5769043</ele>
        <time>2011-11-27T10:40:17Z</time>
      </trkpt>
      <trkpt lat="44.50651" lon="5.99385">
        <ele>1022.0187988</ele>
        <time>2011-11-27T10:40:36Z</time>
      </trkpt>
      <trkpt lat="44.50628" lon="5.99414">
        <ele>1022.4995117</ele>
        <time>2011-11-27T10:40:45Z</time>
      </trkpt>
      <trkpt lat="44.50562" lon="5.99429">
        <ele>1023.4609375</ele>
        <time>2011-11-27T10:41:05Z</time>
      </trkpt>
      <trkpt lat="44.50529" lon="5.99497">
        <ele>1023.9414063</ele>
        <time>2011-11-27T10:41:14Z</time>
      </trkpt>
      <trkpt lat="44.50517" lon="5.99501">
        <ele>1022.4995117</ele>
        <time>2011-11-27T10:41:17Z</time>
      </trkpt>
      <trkpt lat="44.5049" lon="5.99516">
        <ele>1023.4609375</ele>
        <time>2011-11-27T10:41:24Z</time>
      </trkpt>
      <trkpt lat="44.5046" lon="5.99524">
        <ele>1023.4609375</ele>
        <time>2011-11-27T10:41:31Z</time>
      </trkpt>
      <trkpt lat="44.5038" lon="5.99519">
        <ele>1024.4221191</ele>
        <time>2011-11-27T10:41:50Z</time>
      </trkpt>
      <trkpt lat="44.50367" lon="5.9952">
        <ele>1024.902832</ele>
        <time>2011-11-27T10:41:53Z</time>
      </trkpt>
      <trkpt lat="44.50291" lon="5.99534">
        <ele>1026.3447266</ele>
        <time>2011-11-27T10:42:12Z</time>
      </trkpt>
      <trkpt lat="44.50224" lon="5.99549">
        <ele>1027.7866211</ele>
        <time>2011-11-27T10:42:29Z</time>
      </trkpt>
      <trkpt lat="44.50156" lon="5.99553">
        <ele>1029.2285156</ele>
        <time>2011-11-27T10:42:48Z</time>
      </trkpt>
      <trkpt lat="44.5008" lon="5.99495">
        <ele>1032.1125488</ele>
        <time>2011-11-27T10:43:08Z</time>
      </trkpt>
      <trkpt lat="44.50021" lon="5.99517">
        <ele>1034.0351563</ele>
        <time>2011-11-27T10:43:26Z</time>
      </trkpt>
      <trkpt lat="44.49959" lon="5.99536">
        <ele>1035.9577637</ele>
        <time>2011-11-27T10:43:45Z</time>
      </trkpt>
      <trkpt lat="44.49882" lon="5.9955">
        <ele>1038.3613281</ele>
        <time>2011-11-27T10:44:08Z</time>
      </trkpt>
      <trkpt lat="44.49803" lon="5.99554">
        <ele>1040.2839355</ele>
        <time>2011-11-27T10:44:31Z</time>
      </trkpt>
      <trkpt lat="44.49742" lon="5.99531">
        <ele>1042.206543</ele>
        <time>2011-11-27T10:44:50Z</time>
      </trkpt>
      <trkpt lat="44.49701" lon="5.99488">
        <ele>1044.1291504</ele>
        <time>2011-11-27T10:45:07Z</time>
      </trkpt>
      <trkpt lat="44.49713" lon="5.99422">
        <ele>1043.6484375</ele>
        <time>2011-11-27T10:45:22Z</time>
      </trkpt>
      <trkpt lat="44.49755" lon="5.99364">
        <ele>1043.6484375</ele>
        <time>2011-11-27T10:45:38Z</time>
      </trkpt>
      <trkpt lat="44.49774" lon="5.99336">
        <ele>1043.1677246</ele>
        <time>2011-11-27T10:45:45Z</time>
      </trkpt>
      <trkpt lat="44.4978" lon="5.99315">
        <ele>1042.6872559</ele>
        <time>2011-11-27T10:45:49Z</time>
      </trkpt>
      <trkpt lat="44.49788" lon="5.99287">
        <ele>1043.6484375</ele>
        <time>2011-11-27T10:45:54Z</time>
      </trkpt>
      <trkpt lat="44.49792" lon="5.99271">
        <ele>1044.1291504</ele>
        <time>2011-11-27T10:45:57Z</time>
      </trkpt>
      <trkpt lat="44.49798" lon="5.99173">
        <ele>1043.6484375</ele>
        <time>2011-11-27T10:46:12Z</time>
      </trkpt>
      <trkpt lat="44.49784" lon="5.99044">
        <ele>1043.1677246</ele>
        <time>2011-11-27T10:46:33Z</time>
      </trkpt>
      <trkpt lat="44.49782" lon="5.99033">
        <ele>1043.1677246</ele>
        <time>2011-11-27T10:46:35Z</time>
      </trkpt>
      <trkpt lat="44.49772" lon="5.99007">
        <ele>1043.1677246</ele>
        <time>2011-11-27T10:46:40Z</time>
      </trkpt>
      <trkpt lat="44.49757" lon="5.98985">
        <ele>1043.6484375</ele>
        <time>2011-11-27T10:46:45Z</time>
      </trkpt>
      <trkpt lat="44.49735" lon="5.98967">
        <ele>1043.6484375</ele>
        <time>2011-11-27T10:46:51Z</time>
      </trkpt>
      <trkpt lat="44.4972" lon="5.98956">
        <ele>1043.1677246</ele>
        <time>2011-11-27T10:46:55Z</time>
      </trkpt>
      <trkpt lat="44.49683" lon="5.98927">
        <ele>1043.6484375</ele>
        <time>2011-11-27T10:47:05Z</time>
      </trkpt>
      <trkpt lat="44.49649" lon="5.9887">
        <ele>1043.6484375</ele>
        <time>2011-11-27T10:47:17Z</time>
      </trkpt>
      <trkpt lat="44.49644" lon="5.98853">
        <ele>1043.1677246</ele>
        <time>2011-11-27T10:47:20Z</time>
      </trkpt>
      <trkpt lat="44.49623" lon="5.98725">
        <ele>1043.6484375</ele>
        <time>2011-11-27T10:47:41Z</time>
      </trkpt>
      <trkpt lat="44.49622" lon="5.98719">
        <ele>1043.6484375</ele>
        <time>2011-11-27T10:47:42Z</time>
      </trkpt>
      <trkpt lat="44.49615" lon="5.98689">
        <ele>1043.6484375</ele>
        <time>2011-11-27T10:47:47Z</time>
      </trkpt>
      <trkpt lat="44.49598" lon="5.98667">
        <ele>1043.6484375</ele>
        <time>2011-11-27T10:47:52Z</time>
      </trkpt>
      <trkpt lat="44.49584" lon="5.98662">
        <ele>1043.6484375</ele>
        <time>2011-11-27T10:47:55Z</time>
      </trkpt>
      <trkpt lat="44.49555" lon="5.98654">
        <ele>1043.1677246</ele>
        <time>2011-11-27T10:48:01Z</time>
      </trkpt>
      <trkpt lat="44.49536" lon="5.98644">
        <ele>1043.1677246</ele>
        <time>2011-11-27T10:48:05Z</time>
      </trkpt>
      <trkpt lat="44.49448" lon="5.98602">
        <ele>1043.1677246</ele>
        <time>2011-11-27T10:48:23Z</time>
      </trkpt>
      <trkpt lat="44.49382" lon="5.98588">
        <ele>1043.6484375</ele>
        <time>2011-11-27T10:48:36Z</time>
      </trkpt>
      <trkpt lat="44.49336" lon="5.98578">
        <ele>1043.6484375</ele>
        <time>2011-11-27T10:48:46Z</time>
      </trkpt>
      <trkpt lat="44.49317" lon="5.98573">
        <ele>1043.6484375</ele>
        <time>2011-11-27T10:48:50Z</time>
      </trkpt>
      <trkpt lat="44.49277" lon="5.98564">
        <ele>1043.6484375</ele>
        <time>2011-11-27T10:48:58Z</time>
      </trkpt>
      <trkpt lat="44.49229" lon="5.98553">
        <ele>1043.1677246</ele>
        <time>2011-11-27T10:49:07Z</time>
      </trkpt>
      <trkpt lat="44.49219" lon="5.98551">
        <ele>1042.6872559</ele>
        <time>2011-11-27T10:49:09Z</time>
      </trkpt>
      <trkpt lat="44.49114" lon="5.98535">
        <ele>1043.1677246</ele>
        <time>2011-11-27T10:49:29Z</time>
      </trkpt>
      <trkpt lat="44.49027" lon="5.98555">
        <ele>1043.6484375</ele>
        <time>2011-11-27T10:49:48Z</time>
      </trkpt>
      <trkpt lat="44.48944" lon="5.98576">
        <ele>1044.6096191</ele>
        <time>2011-11-27T10:50:07Z</time>
      </trkpt>
      <trkpt lat="44.48861" lon="5.98595">
        <ele>1044.6096191</ele>
        <time>2011-11-27T10:50:24Z</time>
      </trkpt>
      <trkpt lat="44.48823" lon="5.98605">
        <ele>1044.1291504</ele>
        <time>2011-11-27T10:50:31Z</time>
      </trkpt>
      <trkpt lat="44.48722" lon="5.98628">
        <ele>1044.1291504</ele>
        <time>2011-11-27T10:50:49Z</time>
      </trkpt>
      <trkpt lat="44.48635" lon="5.98613">
        <ele>1043.1677246</ele>
        <time>2011-11-27T10:51:04Z</time>
      </trkpt>
      <trkpt lat="44.48598" lon="5.98602">
        <ele>1043.6484375</ele>
        <time>2011-11-27T10:51:11Z</time>
      </trkpt>
      <trkpt lat="44.48568" lon="5.98571">
        <ele>1043.1677246</ele>
        <time>2011-11-27T10:51:18Z</time>
      </trkpt>
      <trkpt lat="44.48555" lon="5.98546">
        <ele>1043.1677246</ele>
        <time>2011-11-27T10:51:22Z</time>
      </trkpt>
      <trkpt lat="44.48536" lon="5.98521">
        <ele>1043.6484375</ele>
        <time>2011-11-27T10:51:27Z</time>
      </trkpt>
      <trkpt lat="44.48452" lon="5.98493">
        <ele>1044.6096191</ele>
        <time>2011-11-27T10:51:44Z</time>
      </trkpt>
      <trkpt lat="44.48424" lon="5.98499">
        <ele>1045.090332</ele>
        <time>2011-11-27T10:51:50Z</time>
      </trkpt>
      <trkpt lat="44.48363" lon="5.98525">
        <ele>1044.6096191</ele>
        <time>2011-11-27T10:52:03Z</time>
      </trkpt>
      <trkpt lat="44.48339" lon="5.9852">
        <ele>1044.1291504</ele>
        <time>2011-11-27T10:52:08Z</time>
      </trkpt>
      <trkpt lat="44.4833" lon="5.98515">
        <ele>1043.6484375</ele>
        <time>2011-11-27T10:52:10Z</time>
      </trkpt>
      <trkpt lat="44.48307" lon="5.9849">
        <ele>1041.7258301</ele>
        <time>2011-11-27T10:52:15Z</time>
      </trkpt>
      <trkpt lat="44.4827" lon="5.98424">
        <ele>1038.3613281</ele>
        <time>2011-11-27T10:52:23Z</time>
      </trkpt>
      <trkpt lat="44.4825" lon="5.98384">
        <ele>1036.4387207</ele>
        <time>2011-11-27T10:52:27Z</time>
      </trkpt>
      <trkpt lat="44.48234" lon="5.98352">
        <ele>1034.5158691</ele>
        <time>2011-11-27T10:52:30Z</time>
      </trkpt>
      <trkpt lat="44.48211" lon="5.98307">
        <ele>1032.5932617</ele>
        <time>2011-11-27T10:52:34Z</time>
      </trkpt>
      <trkpt lat="44.48187" lon="5.98261">
        <ele>1029.2285156</ele>
        <time>2011-11-27T10:52:38Z</time>
      </trkpt>
      <trkpt lat="44.48181" lon="5.9825">
        <ele>1029.2285156</ele>
        <time>2011-11-27T10:52:39Z</time>
      </trkpt>
      <trkpt lat="44.48169" lon="5.98227">
        <ele>1027.7866211</ele>
        <time>2011-11-27T10:52:41Z</time>
      </trkpt>
      <trkpt lat="44.48137" lon="5.98172">
        <ele>1025.8640137</ele>
        <time>2011-11-27T10:52:46Z</time>
      </trkpt>
      <trkpt lat="44.48102" lon="5.98119">
        <ele>1022.4995117</ele>
        <time>2011-11-27T10:52:51Z</time>
      </trkpt>
      <trkpt lat="44.48088" lon="5.98098">
        <ele>1021.0576172</ele>
        <time>2011-11-27T10:52:53Z</time>
      </trkpt>
      <trkpt lat="44.48052" lon="5.98044">
        <ele>1017.692627</ele>
        <time>2011-11-27T10:52:58Z</time>
      </trkpt>
      <trkpt lat="44.48038" lon="5.98022">
        <ele>1017.2121582</ele>
        <time>2011-11-27T10:53:00Z</time>
      </trkpt>
      <trkpt lat="44.48009" lon="5.9798">
        <ele>1014.328125</ele>
        <time>2011-11-27T10:53:04Z</time>
      </trkpt>
      <trkpt lat="44.47988" lon="5.97948">
        <ele>1012.4055176</ele>
        <time>2011-11-27T10:53:07Z</time>
      </trkpt>
      <trkpt lat="44.47936" lon="5.97871">
        <ele>1009.5217285</ele>
        <time>2011-11-27T10:53:15Z</time>
      </trkpt>
      <trkpt lat="44.47921" lon="5.97834">
        <ele>1009.0410156</ele>
        <time>2011-11-27T10:53:19Z</time>
      </trkpt>
      <trkpt lat="44.47897" lon="5.97813">
        <ele>1008.5603027</ele>
        <time>2011-11-27T10:53:23Z</time>
      </trkpt>
      <trkpt lat="44.4786" lon="5.97761">
        <ele>1008.5603027</ele>
        <time>2011-11-27T10:53:34Z</time>
      </trkpt>
      <trkpt lat="44.47827" lon="5.97711">
        <ele>1010.4829102</ele>
        <time>2011-11-27T10:53:49Z</time>
      </trkpt>
      <trkpt lat="44.47786" lon="5.97637">
        <ele>1012.4055176</ele>
        <time>2011-11-27T10:54:10Z</time>
      </trkpt>
      <trkpt lat="44.47745" lon="5.97566">
        <ele>1014.328125</ele>
        <time>2011-11-27T10:54:32Z</time>
      </trkpt>
      <trkpt lat="44.47729" lon="5.97524">
        <ele>1016.7314453</ele>
        <time>2011-11-27T10:54:47Z</time>
      </trkpt>
      <trkpt lat="44.47735" lon="5.97521">
        <ele>1016.7314453</ele>
        <time>2011-11-27T10:54:58Z</time>
      </trkpt>
      <trkpt lat="44.47735" lon="5.97521">
        <ele>1016.2507324</ele>
        <time>2011-11-27T10:59:41Z</time>
      </trkpt>
      <trkpt lat="44.47744" lon="5.97517">
        <ele>1016.2507324</ele>
        <time>2011-11-27T10:59:47Z</time>
      </trkpt>
      <trkpt lat="44.47781" lon="5.97507">
        <ele>1017.692627</ele>
        <time>2011-11-27T11:00:03Z</time>
      </trkpt>
      <trkpt lat="44.47811" lon="5.97486">
        <ele>1019.6154785</ele>
        <time>2011-11-27T11:00:19Z</time>
      </trkpt>
      <trkpt lat="44.47832" lon="5.97466">
        <ele>1021.5380859</ele>
        <time>2011-11-27T11:00:32Z</time>
      </trkpt>
      <trkpt lat="44.47838" lon="5.97459">
        <ele>1022.4995117</ele>
        <time>2011-11-27T11:00:36Z</time>
      </trkpt>
      <trkpt lat="44.47864" lon="5.97428">
        <ele>1025.8640137</ele>
        <time>2011-11-27T11:00:55Z</time>
      </trkpt>
      <trkpt lat="44.47866" lon="5.97391">
        <ele>1028.7480469</ele>
        <time>2011-11-27T11:01:11Z</time>
      </trkpt>
      <trkpt lat="44.47865" lon="5.97352">
        <ele>1032.1125488</ele>
        <time>2011-11-27T11:01:28Z</time>
      </trkpt>
      <trkpt lat="44.47879" lon="5.97321">
        <ele>1034.996582</ele>
        <time>2011-11-27T11:01:44Z</time>
      </trkpt>
      <trkpt lat="44.47906" lon="5.97314">
        <ele>1038.3613281</ele>
        <time>2011-11-27T11:02:00Z</time>
      </trkpt>
      <trkpt lat="44.47938" lon="5.97314">
        <ele>1041.7258301</ele>
        <time>2011-11-27T11:02:19Z</time>
      </trkpt>
      <trkpt lat="44.47964" lon="5.97305">
        <ele>1044.6096191</ele>
        <time>2011-11-27T11:02:35Z</time>
      </trkpt>
      <trkpt lat="44.4799" lon="5.97296">
        <ele>1047.9743652</ele>
        <time>2011-11-27T11:02:51Z</time>
      </trkpt>
      <trkpt lat="44.48017" lon="5.97298">
        <ele>1050.8581543</ele>
        <time>2011-11-27T11:03:07Z</time>
      </trkpt>
      <trkpt lat="44.4805" lon="5.97296">
        <ele>1053.7424316</ele>
        <time>2011-11-27T11:03:26Z</time>
      </trkpt>
      <trkpt lat="44.4808" lon="5.9729">
        <ele>1057.1069336</ele>
        <time>2011-11-27T11:03:45Z</time>
      </trkpt>
      <trkpt lat="44.48087" lon="5.97287">
        <ele>1057.5876465</ele>
        <time>2011-11-27T11:03:49Z</time>
      </trkpt>
      <trkpt lat="44.48109" lon="5.97262">
        <ele>1060.4714355</ele>
        <time>2011-11-27T11:04:07Z</time>
      </trkpt>
      <trkpt lat="44.48104" lon="5.97227">
        <ele>1063.8359375</ele>
        <time>2011-11-27T11:04:22Z</time>
      </trkpt>
      <trkpt lat="44.48104" lon="5.97193">
        <ele>1067.2006836</ele>
        <time>2011-11-27T11:04:36Z</time>
      </trkpt>
      <trkpt lat="44.48114" lon="5.97162">
        <ele>1070.0847168</ele>
        <time>2011-11-27T11:04:51Z</time>
      </trkpt>
      <trkpt lat="44.48119" lon="5.97154">
        <ele>1071.0461426</ele>
        <time>2011-11-27T11:04:56Z</time>
      </trkpt>
      <trkpt lat="44.48133" lon="5.97125">
        <ele>1074.4106445</ele>
        <time>2011-11-27T11:05:12Z</time>
      </trkpt>
      <trkpt lat="44.48143" lon="5.97088">
        <ele>1077.7751465</ele>
        <time>2011-11-27T11:05:29Z</time>
      </trkpt>
      <trkpt lat="44.48142" lon="5.97048">
        <ele>1080.1784668</ele>
        <time>2011-11-27T11:05:47Z</time>
      </trkpt>
      <trkpt lat="44.48139" lon="5.97012">
        <ele>1082.1010742</ele>
        <time>2011-11-27T11:06:03Z</time>
      </trkpt>
      <trkpt lat="44.48133" lon="5.96956">
        <ele>1084.9853516</ele>
        <time>2011-11-27T11:06:26Z</time>
      </trkpt>
      <trkpt lat="44.48131" lon="5.96903">
        <ele>1087.3884277</ele>
        <time>2011-11-27T11:06:47Z</time>
      </trkpt>
      <trkpt lat="44.48132" lon="5.96865">
        <ele>1089.791748</ele>
        <time>2011-11-27T11:07:03Z</time>
      </trkpt>
      <trkpt lat="44.48133" lon="5.9682">
        <ele>1093.15625</ele>
        <time>2011-11-27T11:07:22Z</time>
      </trkpt>
      <trkpt lat="44.48133" lon="5.96785">
        <ele>1095.5595703</ele>
        <time>2011-11-27T11:07:38Z</time>
      </trkpt>
      <trkpt lat="44.48134" lon="5.96765">
        <ele>1097.4821777</ele>
        <time>2011-11-27T11:07:47Z</time>
      </trkpt>
      <trkpt lat="44.48134" lon="5.96728">
        <ele>1100.8469238</ele>
        <time>2011-11-27T11:08:04Z</time>
      </trkpt>
      <trkpt lat="44.48133" lon="5.96682">
        <ele>1104.2116699</ele>
        <time>2011-11-27T11:08:24Z</time>
      </trkpt>
      <trkpt lat="44.48133" lon="5.96677">
        <ele>1105.1728516</ele>
        <time>2011-11-27T11:08:26Z</time>
      </trkpt>
      <trkpt lat="44.48133" lon="5.96639">
        <ele>1108.5373535</ele>
        <time>2011-11-27T11:08:43Z</time>
      </trkpt>
      <trkpt lat="44.48135" lon="5.96603">
        <ele>1111.4213867</ele>
        <time>2011-11-27T11:08:59Z</time>
      </trkpt>
      <trkpt lat="44.48138" lon="5.96575">
        <ele>1113.8244629</ele>
        <time>2011-11-27T11:09:13Z</time>
      </trkpt>
      <trkpt lat="44.48139" lon="5.96554">
        <ele>1115.7473145</ele>
        <time>2011-11-27T11:09:23Z</time>
      </trkpt>
      <trkpt lat="44.4814" lon="5.96528">
        <ele>1118.1506348</ele>
        <time>2011-11-27T11:09:37Z</time>
      </trkpt>
      <trkpt lat="44.48142" lon="5.96495">
        <ele>1121.034668</ele>
        <time>2011-11-27T11:09:53Z</time>
      </trkpt>
      <trkpt lat="44.48142" lon="5.96477">
        <ele>1122.4765625</ele>
        <time>2011-11-27T11:10:01Z</time>
      </trkpt>
      <trkpt lat="44.48143" lon="5.96462">
        <ele>1124.3991699</ele>
        <time>2011-11-27T11:10:08Z</time>
      </trkpt>
      <trkpt lat="44.48144" lon="5.9642">
        <ele>1127.2832031</ele>
        <time>2011-11-27T11:10:28Z</time>
      </trkpt>
      <trkpt lat="44.48146" lon="5.96396">
        <ele>1128.7250977</ele>
        <time>2011-11-27T11:10:40Z</time>
      </trkpt>
      <trkpt lat="44.48147" lon="5.96371">
        <ele>1130.1669922</ele>
        <time>2011-11-27T11:10:51Z</time>
      </trkpt>
      <trkpt lat="44.48151" lon="5.96334">
        <ele>1133.5317383</ele>
        <time>2011-11-27T11:11:09Z</time>
      </trkpt>
      <trkpt lat="44.48157" lon="5.96323">
        <ele>1134.973877</ele>
        <time>2011-11-27T11:11:16Z</time>
      </trkpt>
      <trkpt lat="44.48173" lon="5.96328">
        <ele>1136.8962402</ele>
        <time>2011-11-27T11:11:27Z</time>
      </trkpt>
      <trkpt lat="44.48199" lon="5.96348">
        <ele>1139.7802734</ele>
        <time>2011-11-27T11:11:45Z</time>
      </trkpt>
      <trkpt lat="44.48224" lon="5.96358">
        <ele>1142.6643066</ele>
        <time>2011-11-27T11:12:02Z</time>
      </trkpt>
      <trkpt lat="44.48232" lon="5.96361">
        <ele>1143.1447754</ele>
        <time>2011-11-27T11:12:07Z</time>
      </trkpt>
      <trkpt lat="44.48259" lon="5.96369">
        <ele>1145.5480957</ele>
        <time>2011-11-27T11:12:24Z</time>
      </trkpt>
      <trkpt lat="44.4826" lon="5.9637">
        <ele>1146.0288086</ele>
        <time>2011-11-27T11:12:25Z</time>
      </trkpt>
      <trkpt lat="44.48269" lon="5.96375">
        <ele>1146.9899902</ele>
        <time>2011-11-27T11:12:31Z</time>
      </trkpt>
      <trkpt lat="44.48285" lon="5.96385">
        <ele>1148.9128418</ele>
        <time>2011-11-27T11:12:42Z</time>
      </trkpt>
      <trkpt lat="44.48293" lon="5.96392">
        <ele>1149.8742676</ele>
        <time>2011-11-27T11:12:48Z</time>
      </trkpt>
      <trkpt lat="44.48315" lon="5.96416">
        <ele>1151.796875</ele>
        <time>2011-11-27T11:13:05Z</time>
      </trkpt>
      <trkpt lat="44.48339" lon="5.9644">
        <ele>1153.7194824</ele>
        <time>2011-11-27T11:13:21Z</time>
      </trkpt>
      <trkpt lat="44.48341" lon="5.96435">
        <ele>1153.7194824</ele>
        <time>2011-11-27T11:13:22Z</time>
      </trkpt>
      <trkpt lat="44.48343" lon="5.96399">
        <ele>1156.6032715</ele>
        <time>2011-11-27T11:13:38Z</time>
      </trkpt>
      <trkpt lat="44.48346" lon="5.96344">
        <ele>1159.4873047</ele>
        <time>2011-11-27T11:14:00Z</time>
      </trkpt>
      <trkpt lat="44.48354" lon="5.96297">
        <ele>1161.890625</ele>
        <time>2011-11-27T11:14:20Z</time>
      </trkpt>
      <trkpt lat="44.48354" lon="5.96284">
        <ele>1162.8518066</ele>
        <time>2011-11-27T11:14:25Z</time>
      </trkpt>
      <trkpt lat="44.48354" lon="5.96275">
        <ele>1163.3325195</ele>
        <time>2011-11-27T11:14:29Z</time>
      </trkpt>
      <trkpt lat="44.48356" lon="5.96256">
        <ele>1164.7746582</ele>
        <time>2011-11-27T11:14:37Z</time>
      </trkpt>
      <trkpt lat="44.48356" lon="5.96249">
        <ele>1165.2553711</ele>
        <time>2011-11-27T11:14:40Z</time>
      </trkpt>
      <trkpt lat="44.48356" lon="5.96232">
        <ele>1166.2165527</ele>
        <time>2011-11-27T11:14:47Z</time>
      </trkpt>
      <trkpt lat="44.48357" lon="5.96197">
        <ele>1168.619873</ele>
        <time>2011-11-27T11:15:03Z</time>
      </trkpt>
      <trkpt lat="44.48358" lon="5.96158">
        <ele>1171.0231934</ele>
        <time>2011-11-27T11:15:20Z</time>
      </trkpt>
      <trkpt lat="44.48353" lon="5.9611">
        <ele>1174.3876953</ele>
        <time>2011-11-27T11:15:40Z</time>
      </trkpt>
      <trkpt lat="44.48346" lon="5.96075">
        <ele>1176.7910156</ele>
        <time>2011-11-27T11:15:56Z</time>
      </trkpt>
      <trkpt lat="44.48338" lon="5.9604">
        <ele>1178.713623</ele>
        <time>2011-11-27T11:16:11Z</time>
      </trkpt>
      <trkpt lat="44.48351" lon="5.95982">
        <ele>1181.5976563</ele>
        <time>2011-11-27T11:16:33Z</time>
      </trkpt>
      <trkpt lat="44.48385" lon="5.95976">
        <ele>1184.0009766</ele>
        <time>2011-11-27T11:16:51Z</time>
      </trkpt>
      <trkpt lat="44.48413" lon="5.95971">
        <ele>1185.923584</ele>
        <time>2011-11-27T11:17:07Z</time>
      </trkpt>
      <trkpt lat="44.48432" lon="5.9593">
        <ele>1188.8076172</ele>
        <time>2011-11-27T11:17:28Z</time>
      </trkpt>
      <trkpt lat="44.48435" lon="5.95914">
        <ele>1189.2880859</ele>
        <time>2011-11-27T11:17:35Z</time>
      </trkpt>
      <trkpt lat="44.48445" lon="5.95863">
        <ele>1191.6914063</ele>
        <time>2011-11-27T11:17:56Z</time>
      </trkpt>
      <trkpt lat="44.48454" lon="5.95808">
        <ele>1195.0559082</ele>
        <time>2011-11-27T11:18:17Z</time>
      </trkpt>
      <trkpt lat="44.48463" lon="5.95759">
        <ele>1197.4594727</ele>
        <time>2011-11-27T11:18:36Z</time>
      </trkpt>
      <trkpt lat="44.48469" lon="5.95705">
        <ele>1200.3435059</ele>
        <time>2011-11-27T11:18:58Z</time>
      </trkpt>
      <trkpt lat="44.48467" lon="5.95664">
        <ele>1203.7080078</ele>
        <time>2011-11-27T11:19:15Z</time>
      </trkpt>
      <trkpt lat="44.48467" lon="5.9562">
        <ele>1206.5917969</ele>
        <time>2011-11-27T11:19:34Z</time>
      </trkpt>
      <trkpt lat="44.48467" lon="5.95595">
        <ele>1208.0339355</ele>
        <time>2011-11-27T11:19:45Z</time>
      </trkpt>
      <trkpt lat="44.48467" lon="5.95555">
        <ele>1210.9177246</ele>
        <time>2011-11-27T11:20:02Z</time>
      </trkpt>
      <trkpt lat="44.48475" lon="5.95505">
        <ele>1214.2824707</ele>
        <time>2011-11-27T11:20:23Z</time>
      </trkpt>
      <trkpt lat="44.48499" lon="5.95472">
        <ele>1217.6469727</ele>
        <time>2011-11-27T11:20:43Z</time>
      </trkpt>
      <trkpt lat="44.48523" lon="5.95451">
        <ele>1220.050293</ele>
        <time>2011-11-27T11:21:01Z</time>
      </trkpt>
      <trkpt lat="44.48552" lon="5.95456">
        <ele>1223.4150391</ele>
        <time>2011-11-27T11:21:19Z</time>
      </trkpt>
      <trkpt lat="44.48586" lon="5.95457">
        <ele>1224.3762207</ele>
        <time>2011-11-27T11:21:38Z</time>
      </trkpt>
      <trkpt lat="44.48625" lon="5.95444">
        <ele>1226.779541</ele>
        <time>2011-11-27T11:21:58Z</time>
      </trkpt>
      <trkpt lat="44.48654" lon="5.95435">
        <ele>1227.7407227</ele>
        <time>2011-11-27T11:22:15Z</time>
      </trkpt>
      <trkpt lat="44.48645" lon="5.95398">
        <ele>1228.7023926</ele>
        <time>2011-11-27T11:22:28Z</time>
      </trkpt>
      <trkpt lat="44.486" lon="5.95351">
        <ele>1231.1057129</ele>
        <time>2011-11-27T11:22:51Z</time>
      </trkpt>
      <trkpt lat="44.48581" lon="5.95297">
        <ele>1232.5476074</ele>
        <time>2011-11-27T11:23:08Z</time>
      </trkpt>
      <trkpt lat="44.48566" lon="5.95238">
        <ele>1233.989502</ele>
        <time>2011-11-27T11:23:26Z</time>
      </trkpt>
      <trkpt lat="44.48553" lon="5.9518">
        <ele>1236.3928223</ele>
        <time>2011-11-27T11:23:44Z</time>
      </trkpt>
      <trkpt lat="44.48544" lon="5.9511">
        <ele>1238.3154297</ele>
        <time>2011-11-27T11:24:03Z</time>
      </trkpt>
      <trkpt lat="44.48536" lon="5.9504">
        <ele>1239.7573242</ele>
        <time>2011-11-27T11:24:22Z</time>
      </trkpt>
      <trkpt lat="44.48523" lon="5.94956">
        <ele>1241.6799316</ele>
        <time>2011-11-27T11:24:45Z</time>
      </trkpt>
      <trkpt lat="44.4851" lon="5.94892">
        <ele>1244.0834961</ele>
        <time>2011-11-27T11:25:04Z</time>
      </trkpt>
      <trkpt lat="44.48501" lon="5.94832">
        <ele>1246.4868164</ele>
        <time>2011-11-27T11:25:22Z</time>
      </trkpt>
      <trkpt lat="44.48486" lon="5.9476">
        <ele>1248.4091797</ele>
        <time>2011-11-27T11:25:43Z</time>
      </trkpt>
      <trkpt lat="44.48471" lon="5.94697">
        <ele>1250.8125</ele>
        <time>2011-11-27T11:26:02Z</time>
      </trkpt>
      <trkpt lat="44.48463" lon="5.94633">
        <ele>1252.2543945</ele>
        <time>2011-11-27T11:26:20Z</time>
      </trkpt>
      <trkpt lat="44.48463" lon="5.94567">
        <ele>1254.1772461</ele>
        <time>2011-11-27T11:26:39Z</time>
      </trkpt>
      <trkpt lat="44.48464" lon="5.94532">
        <ele>1255.6191406</ele>
        <time>2011-11-27T11:26:51Z</time>
      </trkpt>
      <trkpt lat="44.4848" lon="5.9449">
        <ele>1258.5029297</ele>
        <time>2011-11-27T11:27:09Z</time>
      </trkpt>
      <trkpt lat="44.48499" lon="5.94459">
        <ele>1261.8679199</ele>
        <time>2011-11-27T11:27:26Z</time>
      </trkpt>
      <trkpt lat="44.48503" lon="5.94451">
        <ele>1261.8679199</ele>
        <time>2011-11-27T11:27:30Z</time>
      </trkpt>
      <trkpt lat="44.48513" lon="5.94419">
        <ele>1264.751709</ele>
        <time>2011-11-27T11:27:44Z</time>
      </trkpt>
      <trkpt lat="44.48522" lon="5.94387">
        <ele>1268.1162109</ele>
        <time>2011-11-27T11:27:59Z</time>
      </trkpt>
      <trkpt lat="44.48526" lon="5.94372">
        <ele>1269.0776367</ele>
        <time>2011-11-27T11:28:06Z</time>
      </trkpt>
      <trkpt lat="44.48528" lon="5.94366">
        <ele>1269.0776367</ele>
        <time>2011-11-27T11:28:09Z</time>
      </trkpt>
      <trkpt lat="44.48536" lon="5.94329">
        <ele>1271.9614258</ele>
        <time>2011-11-27T11:28:26Z</time>
      </trkpt>
      <trkpt lat="44.48543" lon="5.94303">
        <ele>1273.8840332</ele>
        <time>2011-11-27T11:28:39Z</time>
      </trkpt>
      <trkpt lat="44.48546" lon="5.94295">
        <ele>1274.845459</ele>
        <time>2011-11-27T11:28:43Z</time>
      </trkpt>
      <trkpt lat="44.48559" lon="5.9426">
        <ele>1277.7294922</ele>
        <time>2011-11-27T11:29:01Z</time>
      </trkpt>
      <trkpt lat="44.48578" lon="5.94219">
        <ele>1281.0942383</ele>
        <time>2011-11-27T11:29:24Z</time>
      </trkpt>
      <trkpt lat="44.48587" lon="5.94197">
        <ele>1282.5361328</ele>
        <time>2011-11-27T11:29:35Z</time>
      </trkpt>
      <trkpt lat="44.48595" lon="5.94176">
        <ele>1284.9394531</ele>
        <time>2011-11-27T11:29:47Z</time>
      </trkpt>
      <trkpt lat="44.48604" lon="5.94158">
        <ele>1286.3813477</ele>
        <time>2011-11-27T11:29:57Z</time>
      </trkpt>
      <trkpt lat="44.4862" lon="5.94119">
        <ele>1288.784668</ele>
        <time>2011-11-27T11:30:17Z</time>
      </trkpt>
      <trkpt lat="44.48632" lon="5.94065">
        <ele>1291.668457</ele>
        <time>2011-11-27T11:30:40Z</time>
      </trkpt>
      <trkpt lat="44.48626" lon="5.94052">
        <ele>1292.630127</ele>
        <time>2011-11-27T11:30:46Z</time>
      </trkpt>
      <trkpt lat="44.48609" lon="5.94043">
        <ele>1294.0720215</ele>
        <time>2011-11-27T11:30:56Z</time>
      </trkpt>
      <trkpt lat="44.48576" lon="5.94024">
        <ele>1296.9558105</ele>
        <time>2011-11-27T11:31:16Z</time>
      </trkpt>
      <trkpt lat="44.48551" lon="5.93992">
        <ele>1299.8398438</ele>
        <time>2011-11-27T11:31:34Z</time>
      </trkpt>
      <trkpt lat="44.48531" lon="5.9396">
        <ele>1301.2817383</ele>
        <time>2011-11-27T11:31:49Z</time>
      </trkpt>
      <trkpt lat="44.48512" lon="5.93913">
        <ele>1304.6462402</ele>
        <time>2011-11-27T11:32:09Z</time>
      </trkpt>
      <trkpt lat="44.485" lon="5.9388">
        <ele>1305.607666</ele>
        <time>2011-11-27T11:32:23Z</time>
      </trkpt>
      <trkpt lat="44.48495" lon="5.93845">
        <ele>1308.4916992</ele>
        <time>2011-11-27T11:32:38Z</time>
      </trkpt>
      <trkpt lat="44.48493" lon="5.93799">
        <ele>1311.3757324</ele>
        <time>2011-11-27T11:32:57Z</time>
      </trkpt>
      <trkpt lat="44.48502" lon="5.93757">
        <ele>1314.2595215</ele>
        <time>2011-11-27T11:33:16Z</time>
      </trkpt>
      <trkpt lat="44.48514" lon="5.93732">
        <ele>1316.1821289</ele>
        <time>2011-11-27T11:33:33Z</time>
      </trkpt>
      <trkpt lat="44.48514" lon="5.93732">
        <ele>1316.6628418</ele>
        <time>2011-11-27T11:33:48Z</time>
      </trkpt>
      <trkpt lat="44.48514" lon="5.93732">
        <ele>1316.6628418</ele>
        <time>2011-11-27T11:34:27Z</time>
      </trkpt>
      <trkpt lat="44.48514" lon="5.93732">
        <ele>1316.6628418</ele>
        <time>2011-11-27T11:34:29Z</time>
      </trkpt>
      <trkpt lat="44.48509" lon="5.93741">
        <ele>1316.1821289</ele>
        <time>2011-11-27T11:34:35Z</time>
      </trkpt>
      <trkpt lat="44.485" lon="5.93763">
        <ele>1315.2209473</ele>
        <time>2011-11-27T11:34:39Z</time>
      </trkpt>
      <trkpt lat="44.48494" lon="5.93784">
        <ele>1313.2983398</ele>
        <time>2011-11-27T11:34:43Z</time>
      </trkpt>
      <trkpt lat="44.48494" lon="5.93837">
        <ele>1309.9335938</ele>
        <time>2011-11-27T11:34:53Z</time>
      </trkpt>
      <trkpt lat="44.48498" lon="5.93875">
        <ele>1307.5302734</ele>
        <time>2011-11-27T11:34:59Z</time>
      </trkpt>
      <trkpt lat="44.485" lon="5.9388">
        <ele>1307.0495605</ele>
        <time>2011-11-27T11:35:00Z</time>
      </trkpt>
      <trkpt lat="44.48509" lon="5.93904">
        <ele>1305.1269531</ele>
        <time>2011-11-27T11:35:05Z</time>
      </trkpt>
      <trkpt lat="44.48542" lon="5.93923">
        <ele>1302.2429199</ele>
        <time>2011-11-27T11:35:16Z</time>
      </trkpt>
      <trkpt lat="44.48549" lon="5.93929">
        <ele>1301.7624512</ele>
        <time>2011-11-27T11:35:27Z</time>
      </trkpt>
      <trkpt lat="44.48549" lon="5.93929">
        <ele>1301.2817383</ele>
        <time>2011-11-27T11:36:47Z</time>
      </trkpt>
      <trkpt lat="44.48575" lon="5.93956">
        <ele>1299.8398438</ele>
        <time>2011-11-27T11:37:01Z</time>
      </trkpt>
      <trkpt lat="44.48585" lon="5.93966">
        <ele>1297.9172363</ele>
        <time>2011-11-27T11:37:05Z</time>
      </trkpt>
      <trkpt lat="44.48594" lon="5.93972">
        <ele>1297.9172363</ele>
        <time>2011-11-27T11:37:09Z</time>
      </trkpt>
      <trkpt lat="44.4862" lon="5.94048">
        <ele>1294.0720215</ele>
        <time>2011-11-27T11:37:17Z</time>
      </trkpt>
      <trkpt lat="44.48634" lon="5.94078">
        <ele>1292.630127</ele>
        <time>2011-11-27T11:37:22Z</time>
      </trkpt>
      <trkpt lat="44.48626" lon="5.94101">
        <ele>1290.7070313</ele>
        <time>2011-11-27T11:37:25Z</time>
      </trkpt>
      <trkpt lat="44.48624" lon="5.94108">
        <ele>1290.2265625</ele>
        <time>2011-11-27T11:37:26Z</time>
      </trkpt>
      <trkpt lat="44.48613" lon="5.94137">
        <ele>1288.3039551</ele>
        <time>2011-11-27T11:37:32Z</time>
      </trkpt>
      <trkpt lat="44.48586" lon="5.94199">
        <ele>1284.4587402</ele>
        <time>2011-11-27T11:37:40Z</time>
      </trkpt>
      <trkpt lat="44.48583" lon="5.94209">
        <ele>1284.4587402</ele>
        <time>2011-11-27T11:37:41Z</time>
      </trkpt>
      <trkpt lat="44.48574" lon="5.94229">
        <ele>1283.0166016</ele>
        <time>2011-11-27T11:37:43Z</time>
      </trkpt>
      <trkpt lat="44.48564" lon="5.94249">
        <ele>1282.0554199</ele>
        <time>2011-11-27T11:37:45Z</time>
      </trkpt>
      <trkpt lat="44.48556" lon="5.94269">
        <ele>1278.690918</ele>
        <time>2011-11-27T11:37:47Z</time>
      </trkpt>
      <trkpt lat="44.48552" lon="5.94279">
        <ele>1278.690918</ele>
        <time>2011-11-27T11:37:48Z</time>
      </trkpt>
      <trkpt lat="44.48544" lon="5.94299">
        <ele>1277.2490234</ele>
        <time>2011-11-27T11:37:50Z</time>
      </trkpt>
      <trkpt lat="44.48538" lon="5.94319">
        <ele>1275.8066406</ele>
        <time>2011-11-27T11:37:52Z</time>
      </trkpt>
      <trkpt lat="44.48532" lon="5.94348">
        <ele>1273.4035645</ele>
        <time>2011-11-27T11:37:55Z</time>
      </trkpt>
      <trkpt lat="44.48528" lon="5.94365">
        <ele>1271.4807129</ele>
        <time>2011-11-27T11:37:57Z</time>
      </trkpt>
      <trkpt lat="44.48523" lon="5.94382">
        <ele>1270.0388184</ele>
        <time>2011-11-27T11:37:59Z</time>
      </trkpt>
      <trkpt lat="44.48516" lon="5.94409">
        <ele>1267.635498</ele>
        <time>2011-11-27T11:38:02Z</time>
      </trkpt>
      <trkpt lat="44.48503" lon="5.94451">
        <ele>1265.2324219</ele>
        <time>2011-11-27T11:38:06Z</time>
      </trkpt>
      <trkpt lat="44.48499" lon="5.94459">
        <ele>1263.7902832</ele>
        <time>2011-11-27T11:38:07Z</time>
      </trkpt>
      <trkpt lat="44.4849" lon="5.94473">
        <ele>1262.8291016</ele>
        <time>2011-11-27T11:38:09Z</time>
      </trkpt>
      <trkpt lat="44.48482" lon="5.94487">
        <ele>1261.387207</ele>
        <time>2011-11-27T11:38:11Z</time>
      </trkpt>
      <trkpt lat="44.48464" lon="5.94531">
        <ele>1258.0224609</ele>
        <time>2011-11-27T11:38:16Z</time>
      </trkpt>
      <trkpt lat="44.48463" lon="5.94566">
        <ele>1257.0610352</ele>
        <time>2011-11-27T11:38:19Z</time>
      </trkpt>
      <trkpt lat="44.48467" lon="5.94672">
        <ele>1253.6965332</ele>
        <time>2011-11-27T11:38:28Z</time>
      </trkpt>
      <trkpt lat="44.48493" lon="5.94783">
        <ele>1250.3320313</ele>
        <time>2011-11-27T11:38:38Z</time>
      </trkpt>
      <trkpt lat="44.4851" lon="5.94889">
        <ele>1247.447998</ele>
        <time>2011-11-27T11:38:47Z</time>
      </trkpt>
      <trkpt lat="44.48524" lon="5.94962">
        <ele>1245.0446777</ele>
        <time>2011-11-27T11:38:53Z</time>
      </trkpt>
      <trkpt lat="44.48538" lon="5.95061">
        <ele>1241.6799316</ele>
        <time>2011-11-27T11:39:01Z</time>
      </trkpt>
      <trkpt lat="44.48555" lon="5.95192">
        <ele>1238.7961426</ele>
        <time>2011-11-27T11:39:12Z</time>
      </trkpt>
      <trkpt lat="44.48566" lon="5.95237">
        <ele>1236.873291</ele>
        <time>2011-11-27T11:39:16Z</time>
      </trkpt>
      <trkpt lat="44.48587" lon="5.95321">
        <ele>1233.989502</ele>
        <time>2011-11-27T11:39:24Z</time>
      </trkpt>
      <trkpt lat="44.48608" lon="5.9536">
        <ele>1232.5476074</ele>
        <time>2011-11-27T11:39:29Z</time>
      </trkpt>
      <trkpt lat="44.48637" lon="5.9539">
        <ele>1232.0668945</ele>
        <time>2011-11-27T11:39:34Z</time>
      </trkpt>
      <trkpt lat="44.48648" lon="5.95401">
        <ele>1230.625</ele>
        <time>2011-11-27T11:39:36Z</time>
      </trkpt>
      <trkpt lat="44.48646" lon="5.95443">
        <ele>1229.6635742</ele>
        <time>2011-11-27T11:39:42Z</time>
      </trkpt>
      <trkpt lat="44.48625" lon="5.95444">
        <ele>1229.1828613</ele>
        <time>2011-11-27T11:39:46Z</time>
      </trkpt>
      <trkpt lat="44.4858" lon="5.95459">
        <ele>1226.779541</ele>
        <time>2011-11-27T11:39:53Z</time>
      </trkpt>
      <trkpt lat="44.48533" lon="5.95452">
        <ele>1223.8955078</ele>
        <time>2011-11-27T11:40:00Z</time>
      </trkpt>
      <trkpt lat="44.48505" lon="5.95466">
        <ele>1221.4921875</ele>
        <time>2011-11-27T11:40:05Z</time>
      </trkpt>
      <trkpt lat="44.48493" lon="5.95478">
        <ele>1219.5698242</ele>
        <time>2011-11-27T11:40:07Z</time>
      </trkpt>
      <trkpt lat="44.48483" lon="5.95491">
        <ele>1218.6083984</ele>
        <time>2011-11-27T11:40:09Z</time>
      </trkpt>
      <trkpt lat="44.4847" lon="5.95528">
        <ele>1214.7631836</ele>
        <time>2011-11-27T11:40:13Z</time>
      </trkpt>
      <trkpt lat="44.48468" lon="5.95539">
        <ele>1214.7631836</ele>
        <time>2011-11-27T11:40:14Z</time>
      </trkpt>
      <trkpt lat="44.48467" lon="5.95551">
        <ele>1213.8017578</ele>
        <time>2011-11-27T11:40:15Z</time>
      </trkpt>
      <trkpt lat="44.48467" lon="5.95617">
        <ele>1209.4758301</ele>
        <time>2011-11-27T11:40:20Z</time>
      </trkpt>
      <trkpt lat="44.48467" lon="5.9563">
        <ele>1209.4758301</ele>
        <time>2011-11-27T11:40:21Z</time>
      </trkpt>
      <trkpt lat="44.48467" lon="5.95656">
        <ele>1207.5532227</ele>
        <time>2011-11-27T11:40:23Z</time>
      </trkpt>
      <trkpt lat="44.48469" lon="5.95693">
        <ele>1204.6691895</ele>
        <time>2011-11-27T11:40:26Z</time>
      </trkpt>
      <trkpt lat="44.48469" lon="5.95719">
        <ele>1203.7080078</ele>
        <time>2011-11-27T11:40:28Z</time>
      </trkpt>
      <trkpt lat="44.48465" lon="5.95745">
        <ele>1201.7854004</ele>
        <time>2011-11-27T11:40:30Z</time>
      </trkpt>
      <trkpt lat="44.48457" lon="5.95792">
        <ele>1199.3820801</ele>
        <time>2011-11-27T11:40:34Z</time>
      </trkpt>
      <trkpt lat="44.4845" lon="5.95826">
        <ele>1196.498291</ele>
        <time>2011-11-27T11:40:37Z</time>
      </trkpt>
      <trkpt lat="44.48443" lon="5.95873">
        <ele>1194.5751953</ele>
        <time>2011-11-27T11:40:41Z</time>
      </trkpt>
      <trkpt lat="44.48437" lon="5.95906">
        <ele>1193.1333008</ele>
        <time>2011-11-27T11:40:44Z</time>
      </trkpt>
      <trkpt lat="44.48429" lon="5.95944">
        <ele>1191.2106934</ele>
        <time>2011-11-27T11:40:48Z</time>
      </trkpt>
      <trkpt lat="44.4842" lon="5.95966">
        <ele>1189.7687988</ele>
        <time>2011-11-27T11:40:51Z</time>
      </trkpt>
      <trkpt lat="44.48395" lon="5.95975">
        <ele>1187.8461914</ele>
        <time>2011-11-27T11:40:55Z</time>
      </trkpt>
      <trkpt lat="44.48372" lon="5.95978">
        <ele>1186.4042969</ele>
        <time>2011-11-27T11:40:58Z</time>
      </trkpt>
      <trkpt lat="44.48365" lon="5.95978">
        <ele>1185.4428711</ele>
        <time>2011-11-27T11:40:59Z</time>
      </trkpt>
      <trkpt lat="44.48336" lon="5.96007">
        <ele>1183.5202637</ele>
        <time>2011-11-27T11:41:05Z</time>
      </trkpt>
      <trkpt lat="44.48336" lon="5.96024">
        <ele>1183.0395508</ele>
        <time>2011-11-27T11:41:07Z</time>
      </trkpt>
      <trkpt lat="44.48346" lon="5.96077">
        <ele>1180.1557617</ele>
        <time>2011-11-27T11:41:12Z</time>
      </trkpt>
      <trkpt lat="44.48352" lon="5.96101">
        <ele>1179.1940918</ele>
        <time>2011-11-27T11:41:14Z</time>
      </trkpt>
      <trkpt lat="44.48355" lon="5.96125">
        <ele>1177.7521973</ele>
        <time>2011-11-27T11:41:16Z</time>
      </trkpt>
      <trkpt lat="44.48358" lon="5.9615">
        <ele>1176.3103027</ele>
        <time>2011-11-27T11:41:18Z</time>
      </trkpt>
      <trkpt lat="44.48358" lon="5.96188">
        <ele>1173.4265137</ele>
        <time>2011-11-27T11:41:21Z</time>
      </trkpt>
      <trkpt lat="44.48356" lon="5.96212">
        <ele>1171.984375</ele>
        <time>2011-11-27T11:41:23Z</time>
      </trkpt>
      <trkpt lat="44.48356" lon="5.96236">
        <ele>1170.5424805</ele>
        <time>2011-11-27T11:41:25Z</time>
      </trkpt>
      <trkpt lat="44.48354" lon="5.9627">
        <ele>1167.6584473</ele>
        <time>2011-11-27T11:41:28Z</time>
      </trkpt>
      <trkpt lat="44.48354" lon="5.96291">
        <ele>1166.2165527</ele>
        <time>2011-11-27T11:41:30Z</time>
      </trkpt>
      <trkpt lat="44.48347" lon="5.96337">
        <ele>1162.8518066</ele>
        <time>2011-11-27T11:41:34Z</time>
      </trkpt>
      <trkpt lat="44.48345" lon="5.96348">
        <ele>1162.8518066</ele>
        <time>2011-11-27T11:41:35Z</time>
      </trkpt>
      <trkpt lat="44.48343" lon="5.96389">
        <ele>1160.4484863</ele>
        <time>2011-11-27T11:41:39Z</time>
      </trkpt>
      <trkpt lat="44.48343" lon="5.96406">
        <ele>1159.0065918</ele>
        <time>2011-11-27T11:41:41Z</time>
      </trkpt>
      <trkpt lat="44.48342" lon="5.96414">
        <ele>1159.0065918</ele>
        <time>2011-11-27T11:41:42Z</time>
      </trkpt>
      <trkpt lat="44.48327" lon="5.96431">
        <ele>1155.161377</ele>
        <time>2011-11-27T11:41:48Z</time>
      </trkpt>
      <trkpt lat="44.48325" lon="5.96427">
        <ele>1155.161377</ele>
        <time>2011-11-27T11:41:49Z</time>
      </trkpt>
      <trkpt lat="44.48305" lon="5.96406">
        <ele>1153.7194824</ele>
        <time>2011-11-27T11:41:54Z</time>
      </trkpt>
      <trkpt lat="44.48277" lon="5.96379">
        <ele>1150.3549805</ele>
        <time>2011-11-27T11:41:59Z</time>
      </trkpt>
      <trkpt lat="44.48239" lon="5.96363">
        <ele>1147.4707031</ele>
        <time>2011-11-27T11:42:04Z</time>
      </trkpt>
      <trkpt lat="44.4823" lon="5.9636">
        <ele>1147.4707031</ele>
        <time>2011-11-27T11:42:05Z</time>
      </trkpt>
      <trkpt lat="44.48223" lon="5.96358">
        <ele>1145.5480957</ele>
        <time>2011-11-27T11:42:06Z</time>
      </trkpt>
      <trkpt lat="44.48193" lon="5.96344">
        <ele>1143.1447754</ele>
        <time>2011-11-27T11:42:10Z</time>
      </trkpt>
      <trkpt lat="44.4818" lon="5.96333">
        <ele>1141.7028809</ele>
        <time>2011-11-27T11:42:12Z</time>
      </trkpt>
      <trkpt lat="44.48169" lon="5.96326">
        <ele>1140.2609863</ele>
        <time>2011-11-27T11:42:14Z</time>
      </trkpt>
      <trkpt lat="44.48152" lon="5.96333">
        <ele>1136.8962402</ele>
        <time>2011-11-27T11:42:19Z</time>
      </trkpt>
      <trkpt lat="44.48149" lon="5.96348">
        <ele>1136.4157715</ele>
        <time>2011-11-27T11:42:21Z</time>
      </trkpt>
      <trkpt lat="44.48147" lon="5.96377">
        <ele>1133.5317383</ele>
        <time>2011-11-27T11:42:24Z</time>
      </trkpt>
      <trkpt lat="44.48146" lon="5.96397">
        <ele>1133.0510254</ele>
        <time>2011-11-27T11:42:26Z</time>
      </trkpt>
      <trkpt lat="44.48143" lon="5.96437">
        <ele>1130.1669922</ele>
        <time>2011-11-27T11:42:30Z</time>
      </trkpt>
      <trkpt lat="44.48143" lon="5.96466">
        <ele>1127.7636719</ele>
        <time>2011-11-27T11:42:33Z</time>
      </trkpt>
      <trkpt lat="44.48142" lon="5.96483">
        <ele>1126.3217773</ele>
        <time>2011-11-27T11:42:35Z</time>
      </trkpt>
      <trkpt lat="44.48141" lon="5.96522">
        <ele>1123.918457</ele>
        <time>2011-11-27T11:42:39Z</time>
      </trkpt>
      <trkpt lat="44.4814" lon="5.96545">
        <ele>1120.0732422</ele>
        <time>2011-11-27T11:42:41Z</time>
      </trkpt>
      <trkpt lat="44.48139" lon="5.96556">
        <ele>1120.0732422</ele>
        <time>2011-11-27T11:42:42Z</time>
      </trkpt>
      <trkpt lat="44.48137" lon="5.96579">
        <ele>1118.6313477</ele>
        <time>2011-11-27T11:42:44Z</time>
      </trkpt>
      <trkpt lat="44.48135" lon="5.96603">
        <ele>1117.1894531</ele>
        <time>2011-11-27T11:42:46Z</time>
      </trkpt>
      <trkpt lat="44.48133" lon="5.96626">
        <ele>1113.8244629</ele>
        <time>2011-11-27T11:42:48Z</time>
      </trkpt>
      <trkpt lat="44.48133" lon="5.96638">
        <ele>1113.8244629</ele>
        <time>2011-11-27T11:42:49Z</time>
      </trkpt>
      <trkpt lat="44.48133" lon="5.96664">
        <ele>1112.3825684</ele>
        <time>2011-11-27T11:42:51Z</time>
      </trkpt>
      <trkpt lat="44.48133" lon="5.9669">
        <ele>1110.4599609</ele>
        <time>2011-11-27T11:42:53Z</time>
      </trkpt>
      <trkpt lat="44.48134" lon="5.96715">
        <ele>1106.6147461</ele>
        <time>2011-11-27T11:42:55Z</time>
      </trkpt>
      <trkpt lat="44.48134" lon="5.96729">
        <ele>1106.6147461</ele>
        <time>2011-11-27T11:42:56Z</time>
      </trkpt>
      <trkpt lat="44.48134" lon="5.96756">
        <ele>1104.6921387</ele>
        <time>2011-11-27T11:42:58Z</time>
      </trkpt>
      <trkpt lat="44.48133" lon="5.96784">
        <ele>1102.7695313</ele>
        <time>2011-11-27T11:43:00Z</time>
      </trkpt>
      <trkpt lat="44.48133" lon="5.96811">
        <ele>1098.9240723</ele>
        <time>2011-11-27T11:43:02Z</time>
      </trkpt>
      <trkpt lat="44.48133" lon="5.96824">
        <ele>1098.9240723</ele>
        <time>2011-11-27T11:43:03Z</time>
      </trkpt>
      <trkpt lat="44.48132" lon="5.9685">
        <ele>1097.0014648</ele>
        <time>2011-11-27T11:43:05Z</time>
      </trkpt>
      <trkpt lat="44.48132" lon="5.96874">
        <ele>1095.0788574</ele>
        <time>2011-11-27T11:43:07Z</time>
      </trkpt>
      <trkpt lat="44.48131" lon="5.9691">
        <ele>1092.1950684</ele>
        <time>2011-11-27T11:43:10Z</time>
      </trkpt>
      <trkpt lat="44.48134" lon="5.96962">
        <ele>1089.3110352</ele>
        <time>2011-11-27T11:43:15Z</time>
      </trkpt>
      <trkpt lat="44.48135" lon="5.96976">
        <ele>1087.8691406</ele>
        <time>2011-11-27T11:43:17Z</time>
      </trkpt>
      <trkpt lat="44.48137" lon="5.96988">
        <ele>1086.9077148</ele>
        <time>2011-11-27T11:43:19Z</time>
      </trkpt>
      <trkpt lat="44.48143" lon="5.97066">
        <ele>1084.0239258</ele>
        <time>2011-11-27T11:43:28Z</time>
      </trkpt>
      <trkpt lat="44.4814" lon="5.97109">
        <ele>1080.6591797</ele>
        <time>2011-11-27T11:43:32Z</time>
      </trkpt>
      <trkpt lat="44.48136" lon="5.97119">
        <ele>1080.6591797</ele>
        <time>2011-11-27T11:43:33Z</time>
      </trkpt>
      <trkpt lat="44.48131" lon="5.97129">
        <ele>1079.217041</ele>
        <time>2011-11-27T11:43:34Z</time>
      </trkpt>
      <trkpt lat="44.48118" lon="5.97155">
        <ele>1076.8139648</ele>
        <time>2011-11-27T11:43:37Z</time>
      </trkpt>
      <trkpt lat="44.4811" lon="5.97171">
        <ele>1073.4494629</ele>
        <time>2011-11-27T11:43:39Z</time>
      </trkpt>
      <trkpt lat="44.48107" lon="5.9718">
        <ele>1073.4494629</ele>
        <time>2011-11-27T11:43:40Z</time>
      </trkpt>
      <trkpt lat="44.48104" lon="5.97199">
        <ele>1071.5266113</ele>
        <time>2011-11-27T11:43:42Z</time>
      </trkpt>
      <trkpt lat="44.48104" lon="5.97227">
        <ele>1069.604248</ele>
        <time>2011-11-27T11:43:45Z</time>
      </trkpt>
      <trkpt lat="44.48107" lon="5.97243">
        <ele>1067.2006836</ele>
        <time>2011-11-27T11:43:47Z</time>
      </trkpt>
      <trkpt lat="44.48109" lon="5.9725">
        <ele>1065.7587891</ele>
        <time>2011-11-27T11:43:48Z</time>
      </trkpt>
      <trkpt lat="44.48096" lon="5.97281">
        <ele>1062.394043</ele>
        <time>2011-11-27T11:43:53Z</time>
      </trkpt>
      <trkpt lat="44.4809" lon="5.97285">
        <ele>1062.394043</ele>
        <time>2011-11-27T11:43:54Z</time>
      </trkpt>
      <trkpt lat="44.48083" lon="5.97289">
        <ele>1061.4328613</ele>
        <time>2011-11-27T11:43:55Z</time>
      </trkpt>
      <trkpt lat="44.48057" lon="5.97295">
        <ele>1059.9907227</ele>
        <time>2011-11-27T11:43:58Z</time>
      </trkpt>
      <trkpt lat="44.48038" lon="5.97298">
        <ele>1056.6262207</ele>
        <time>2011-11-27T11:44:00Z</time>
      </trkpt>
      <trkpt lat="44.48029" lon="5.97298">
        <ele>1056.6262207</ele>
        <time>2011-11-27T11:44:01Z</time>
      </trkpt>
      <trkpt lat="44.48011" lon="5.97298">
        <ele>1055.6650391</ele>
        <time>2011-11-27T11:44:03Z</time>
      </trkpt>
      <trkpt lat="44.47993" lon="5.97296">
        <ele>1053.7424316</ele>
        <time>2011-11-27T11:44:05Z</time>
      </trkpt>
      <trkpt lat="44.47975" lon="5.973">
        <ele>1052.7810059</ele>
        <time>2011-11-27T11:44:07Z</time>
      </trkpt>
      <trkpt lat="44.47958" lon="5.97307">
        <ele>1048.454834</ele>
        <time>2011-11-27T11:44:09Z</time>
      </trkpt>
      <trkpt lat="44.47949" lon="5.97311">
        <ele>1048.454834</ele>
        <time>2011-11-27T11:44:10Z</time>
      </trkpt>
      <trkpt lat="44.4793" lon="5.97315">
        <ele>1047.0129395</ele>
        <time>2011-11-27T11:44:12Z</time>
      </trkpt>
      <trkpt lat="44.47912" lon="5.97313">
        <ele>1045.5710449</ele>
        <time>2011-11-27T11:44:14Z</time>
      </trkpt>
      <trkpt lat="44.47904" lon="5.97314">
        <ele>1043.6484375</ele>
        <time>2011-11-27T11:44:15Z</time>
      </trkpt>
      <trkpt lat="44.47889" lon="5.97317">
        <ele>1041.7258301</ele>
        <time>2011-11-27T11:44:17Z</time>
      </trkpt>
      <trkpt lat="44.47869" lon="5.97335">
        <ele>1038.842041</ele>
        <time>2011-11-27T11:44:21Z</time>
      </trkpt>
      <trkpt lat="44.47863" lon="5.97359">
        <ele>1036.9191895</ele>
        <time>2011-11-27T11:44:24Z</time>
      </trkpt>
      <trkpt lat="44.47864" lon="5.9738">
        <ele>1035.9577637</ele>
        <time>2011-11-27T11:44:26Z</time>
      </trkpt>
      <trkpt lat="44.47866" lon="5.974">
        <ele>1034.5158691</ele>
        <time>2011-11-27T11:44:28Z</time>
      </trkpt>
      <trkpt lat="44.47862" lon="5.9743">
        <ele>1031.1513672</ele>
        <time>2011-11-27T11:44:31Z</time>
      </trkpt>
      <trkpt lat="44.47852" lon="5.97446">
        <ele>1029.7092285</ele>
        <time>2011-11-27T11:44:33Z</time>
      </trkpt>
      <trkpt lat="44.47839" lon="5.97459">
        <ele>1028.267334</ele>
        <time>2011-11-27T11:44:35Z</time>
      </trkpt>
      <trkpt lat="44.47819" lon="5.97479">
        <ele>1024.4221191</ele>
        <time>2011-11-27T11:44:38Z</time>
      </trkpt>
      <trkpt lat="44.47807" lon="5.97491">
        <ele>1024.4221191</ele>
        <time>2011-11-27T11:44:40Z</time>
      </trkpt>
      <trkpt lat="44.47781" lon="5.97517">
        <ele>1022.0187988</ele>
        <time>2011-11-27T11:44:45Z</time>
      </trkpt>
      <trkpt lat="44.47772" lon="5.97527">
        <ele>1020.5769043</ele>
        <time>2011-11-27T11:44:47Z</time>
      </trkpt>
      <trkpt lat="44.47727" lon="5.97518">
        <ele>1019.6154785</ele>
        <time>2011-11-27T11:44:56Z</time>
      </trkpt>
      <trkpt lat="44.47731" lon="5.97537">
        <ele>1019.1347656</ele>
        <time>2011-11-27T11:45:01Z</time>
      </trkpt>
      <trkpt lat="44.47741" lon="5.97558">
        <ele>1017.692627</ele>
        <time>2011-11-27T11:45:05Z</time>
      </trkpt>
      <trkpt lat="44.47783" lon="5.97632">
        <ele>1015.2895508</ele>
        <time>2011-11-27T11:45:19Z</time>
      </trkpt>
      <trkpt lat="44.47808" lon="5.97681">
        <ele>1014.328125</ele>
        <time>2011-11-27T11:45:26Z</time>
      </trkpt>
      <trkpt lat="44.47862" lon="5.97764">
        <ele>1011.4443359</ele>
        <time>2011-11-27T11:45:38Z</time>
      </trkpt>
      <trkpt lat="44.47896" lon="5.97812">
        <ele>1010.963623</ele>
        <time>2011-11-27T11:45:47Z</time>
      </trkpt>
      <trkpt lat="44.47901" lon="5.97863">
        <ele>1010.0021973</ele>
        <time>2011-11-27T11:45:55Z</time>
      </trkpt>
      <trkpt lat="44.47886" lon="5.97933">
        <ele>1006.1569824</ele>
        <time>2011-11-27T11:46:04Z</time>
      </trkpt>
      <trkpt lat="44.47882" lon="5.97949">
        <ele>1005.1958008</ele>
        <time>2011-11-27T11:46:06Z</time>
      </trkpt>
      <trkpt lat="44.47869" lon="5.98003">
        <ele>1004.2346191</ele>
        <time>2011-11-27T11:46:13Z</time>
      </trkpt>
      <trkpt lat="44.47865" lon="5.98025">
        <ele>1004.2346191</ele>
        <time>2011-11-27T11:46:16Z</time>
      </trkpt>
      <trkpt lat="44.47866" lon="5.98089">
        <ele>1004.2346191</ele>
        <time>2011-11-27T11:46:25Z</time>
      </trkpt>
      <trkpt lat="44.47875" lon="5.98119">
        <ele>1004.7150879</ele>
        <time>2011-11-27T11:46:30Z</time>
      </trkpt>
      <trkpt lat="44.47874" lon="5.98159">
        <ele>1004.2346191</ele>
        <time>2011-11-27T11:46:37Z</time>
      </trkpt>
      <trkpt lat="44.47866" lon="5.98185">
        <ele>1003.7536621</ele>
        <time>2011-11-27T11:46:41Z</time>
      </trkpt>
      <trkpt lat="44.47848" lon="5.98234">
        <ele>1001.3503418</ele>
        <time>2011-11-27T11:46:47Z</time>
      </trkpt>
      <trkpt lat="44.47834" lon="5.98263">
        <ele>999.4277344</ele>
        <time>2011-11-27T11:46:50Z</time>
      </trkpt>
      <trkpt lat="44.47816" lon="5.98309">
        <ele>997.0244141</ele>
        <time>2011-11-27T11:46:54Z</time>
      </trkpt>
      <trkpt lat="44.478" lon="5.98344">
        <ele>995.1018066</ele>
        <time>2011-11-27T11:46:57Z</time>
      </trkpt>
      <trkpt lat="44.47756" lon="5.98415">
        <ele>992.2180176</ele>
        <time>2011-11-27T11:47:04Z</time>
      </trkpt>
      <trkpt lat="44.47681" lon="5.98537">
        <ele>988.8535156</ele>
        <time>2011-11-27T11:47:18Z</time>
      </trkpt>
      <trkpt lat="44.47611" lon="5.98639">
        <ele>988.3728027</ele>
        <time>2011-11-27T11:47:33Z</time>
      </trkpt>
      <trkpt lat="44.47584" lon="5.98672">
        <ele>988.3728027</ele>
        <time>2011-11-27T11:47:40Z</time>
      </trkpt>
      <trkpt lat="44.47565" lon="5.98692">
        <ele>987.8918457</ele>
        <time>2011-11-27T11:47:45Z</time>
      </trkpt>
      <trkpt lat="44.47549" lon="5.98701">
        <ele>987.4111328</ele>
        <time>2011-11-27T11:47:49Z</time>
      </trkpt>
      <trkpt lat="44.47501" lon="5.98713">
        <ele>984.5273438</ele>
        <time>2011-11-27T11:47:57Z</time>
      </trkpt>
      <trkpt lat="44.47474" lon="5.98717">
        <ele>983.0852051</ele>
        <time>2011-11-27T11:48:01Z</time>
      </trkpt>
      <trkpt lat="44.47468" lon="5.98718">
        <ele>981.6433105</ele>
        <time>2011-11-27T11:48:02Z</time>
      </trkpt>
      <trkpt lat="44.4746" lon="5.9872">
        <ele>980.6821289</ele>
        <time>2011-11-27T11:48:04Z</time>
      </trkpt>
      <trkpt lat="44.47449" lon="5.98735">
        <ele>979.7207031</ele>
        <time>2011-11-27T11:48:07Z</time>
      </trkpt>
      <trkpt lat="44.47435" lon="5.98764">
        <ele>977.317627</ele>
        <time>2011-11-27T11:48:11Z</time>
      </trkpt>
      <trkpt lat="44.47425" lon="5.98787">
        <ele>975.3947754</ele>
        <time>2011-11-27T11:48:14Z</time>
      </trkpt>
      <trkpt lat="44.47413" lon="5.9882">
        <ele>973.4724121</ele>
        <time>2011-11-27T11:48:18Z</time>
      </trkpt>
      <trkpt lat="44.47409" lon="5.98849">
        <ele>971.0688477</ele>
        <time>2011-11-27T11:48:21Z</time>
      </trkpt>
      <trkpt lat="44.47402" lon="5.9887">
        <ele>969.6269531</ele>
        <time>2011-11-27T11:48:25Z</time>
      </trkpt>
      <trkpt lat="44.4744" lon="5.98929">
        <ele>967.2236328</ele>
        <time>2011-11-27T11:48:31Z</time>
      </trkpt>
      <trkpt lat="44.47455" lon="5.98955">
        <ele>965.7817383</ele>
        <time>2011-11-27T11:48:34Z</time>
      </trkpt>
      <trkpt lat="44.47463" lon="5.98974">
        <ele>964.3395996</ele>
        <time>2011-11-27T11:48:36Z</time>
      </trkpt>
      <trkpt lat="44.47477" lon="5.99015">
        <ele>960.4943848</ele>
        <time>2011-11-27T11:48:40Z</time>
      </trkpt>
      <trkpt lat="44.47481" lon="5.99025">
        <ele>960.4943848</ele>
        <time>2011-11-27T11:48:41Z</time>
      </trkpt>
      <trkpt lat="44.47495" lon="5.99063">
        <ele>958.0913086</ele>
        <time>2011-11-27T11:48:45Z</time>
      </trkpt>
      <trkpt lat="44.475" lon="5.99077">
        <ele>957.1298828</ele>
        <time>2011-11-27T11:48:47Z</time>
      </trkpt>
      <trkpt lat="44.47484" lon="5.99112">
        <ele>954.7263184</ele>
        <time>2011-11-27T11:48:54Z</time>
      </trkpt>
      <trkpt lat="44.47444" lon="5.99129">
        <ele>952.8037109</ele>
        <time>2011-11-27T11:49:00Z</time>
      </trkpt>
      <trkpt lat="44.47428" lon="5.99133">
        <ele>951.3618164</ele>
        <time>2011-11-27T11:49:02Z</time>
      </trkpt>
      <trkpt lat="44.47344" lon="5.9913">
        <ele>948.4777832</ele>
        <time>2011-11-27T11:49:12Z</time>
      </trkpt>
      <trkpt lat="44.47275" lon="5.99109">
        <ele>944.1520996</ele>
        <time>2011-11-27T11:49:21Z</time>
      </trkpt>
      <trkpt lat="44.47257" lon="5.99094">
        <ele>943.1906738</ele>
        <time>2011-11-27T11:49:24Z</time>
      </trkpt>
      <trkpt lat="44.47233" lon="5.99113">
        <ele>941.2680664</ele>
        <time>2011-11-27T11:49:31Z</time>
      </trkpt>
      <trkpt lat="44.47233" lon="5.99136">
        <ele>940.7873535</ele>
        <time>2011-11-27T11:49:34Z</time>
      </trkpt>
      <trkpt lat="44.47243" lon="5.99173">
        <ele>938.3840332</ele>
        <time>2011-11-27T11:49:39Z</time>
      </trkpt>
      <trkpt lat="44.4727" lon="5.9923">
        <ele>933.0966797</ele>
        <time>2011-11-27T11:49:45Z</time>
      </trkpt>
      <trkpt lat="44.47274" lon="5.9924">
        <ele>933.0966797</ele>
        <time>2011-11-27T11:49:46Z</time>
      </trkpt>
      <trkpt lat="44.47282" lon="5.99258">
        <ele>931.6547852</ele>
        <time>2011-11-27T11:49:48Z</time>
      </trkpt>
      <trkpt lat="44.47308" lon="5.99309">
        <ele>927.8095703</ele>
        <time>2011-11-27T11:49:54Z</time>
      </trkpt>
      <trkpt lat="44.47312" lon="5.99317">
        <ele>927.8095703</ele>
        <time>2011-11-27T11:49:55Z</time>
      </trkpt>
      <trkpt lat="44.4733" lon="5.9935">
        <ele>925.8869629</ele>
        <time>2011-11-27T11:49:59Z</time>
      </trkpt>
      <trkpt lat="44.47358" lon="5.99395">
        <ele>921.560791</ele>
        <time>2011-11-27T11:50:05Z</time>
      </trkpt>
      <trkpt lat="44.47372" lon="5.99414">
        <ele>919.6384277</ele>
        <time>2011-11-27T11:50:08Z</time>
      </trkpt>
      <trkpt lat="44.47386" lon="5.99426">
        <ele>918.677002</ele>
        <time>2011-11-27T11:50:11Z</time>
      </trkpt>
      <trkpt lat="44.47389" lon="5.9943">
        <ele>918.1962891</ele>
        <time>2011-11-27T11:50:12Z</time>
      </trkpt>
      <trkpt lat="44.4739" lon="5.99446">
        <ele>916.7543945</ele>
        <time>2011-11-27T11:50:16Z</time>
      </trkpt>
      <trkpt lat="44.4737" lon="5.99437">
        <ele>915.3125</ele>
        <time>2011-11-27T11:50:21Z</time>
      </trkpt>
      <trkpt lat="44.47299" lon="5.99388">
        <ele>911.947998</ele>
        <time>2011-11-27T11:50:33Z</time>
      </trkpt>
      <trkpt lat="44.47245" lon="5.99358">
        <ele>909.0639648</ele>
        <time>2011-11-27T11:50:40Z</time>
      </trkpt>
      <trkpt lat="44.47182" lon="5.99345">
        <ele>905.6992188</ele>
        <time>2011-11-27T11:50:47Z</time>
      </trkpt>
      <trkpt lat="44.47153" lon="5.99341">
        <ele>903.7766113</ele>
        <time>2011-11-27T11:50:51Z</time>
      </trkpt>
      <trkpt lat="44.47141" lon="5.99342">
        <ele>903.2958984</ele>
        <time>2011-11-27T11:50:53Z</time>
      </trkpt>
      <trkpt lat="44.47119" lon="5.99363">
        <ele>901.373291</ele>
        <time>2011-11-27T11:50:57Z</time>
      </trkpt>
      <trkpt lat="44.47108" lon="5.9939">
        <ele>898.4892578</ele>
        <time>2011-11-27T11:51:00Z</time>
      </trkpt>
      <trkpt lat="44.47092" lon="5.9943">
        <ele>895.6054688</ele>
        <time>2011-11-27T11:51:04Z</time>
      </trkpt>
      <trkpt lat="44.47083" lon="5.99451">
        <ele>892.7216797</ele>
        <time>2011-11-27T11:51:06Z</time>
      </trkpt>
      <trkpt lat="44.47079" lon="5.9946">
        <ele>892.7216797</ele>
        <time>2011-11-27T11:51:07Z</time>
      </trkpt>
      <trkpt lat="44.47072" lon="5.99481">
        <ele>890.798584</ele>
        <time>2011-11-27T11:51:09Z</time>
      </trkpt>
      <trkpt lat="44.47064" lon="5.99502">
        <ele>889.3566895</ele>
        <time>2011-11-27T11:51:11Z</time>
      </trkpt>
      <trkpt lat="44.47058" lon="5.99537">
        <ele>886.4729004</ele>
        <time>2011-11-27T11:51:14Z</time>
      </trkpt>
      <trkpt lat="44.47055" lon="5.99559">
        <ele>884.550293</ele>
        <time>2011-11-27T11:51:16Z</time>
      </trkpt>
      <trkpt lat="44.47053" lon="5.99578">
        <ele>883.1081543</ele>
        <time>2011-11-27T11:51:18Z</time>
      </trkpt>
      <trkpt lat="44.47053" lon="5.99617">
        <ele>880.2243652</ele>
        <time>2011-11-27T11:51:22Z</time>
      </trkpt>
      <trkpt lat="44.47052" lon="5.99627">
        <ele>880.2243652</ele>
        <time>2011-11-27T11:51:23Z</time>
      </trkpt>
      <trkpt lat="44.47051" lon="5.99636">
        <ele>878.7824707</ele>
        <time>2011-11-27T11:51:24Z</time>
      </trkpt>
      <trkpt lat="44.47037" lon="5.99678">
        <ele>874.9370117</ele>
        <time>2011-11-27T11:51:29Z</time>
      </trkpt>
      <trkpt lat="44.47034" lon="5.99687">
        <ele>874.9370117</ele>
        <time>2011-11-27T11:51:30Z</time>
      </trkpt>
      <trkpt lat="44.47025" lon="5.99703">
        <ele>873.9755859</ele>
        <time>2011-11-27T11:51:32Z</time>
      </trkpt>
      <trkpt lat="44.47021" lon="5.9971">
        <ele>872.5336914</ele>
        <time>2011-11-27T11:51:33Z</time>
      </trkpt>
      <trkpt lat="44.47002" lon="5.99728">
        <ele>869.6499023</ele>
        <time>2011-11-27T11:51:37Z</time>
      </trkpt>
      <trkpt lat="44.46992" lon="5.99734">
        <ele>869.6499023</ele>
        <time>2011-11-27T11:51:39Z</time>
      </trkpt>
      <trkpt lat="44.46981" lon="5.9976">
        <ele>867.246582</ele>
        <time>2011-11-27T11:51:44Z</time>
      </trkpt>
      <trkpt lat="44.47001" lon="5.99775">
        <ele>863.8818359</ele>
        <time>2011-11-27T11:51:50Z</time>
      </trkpt>
      <trkpt lat="44.47008" lon="5.99774">
        <ele>863.8818359</ele>
        <time>2011-11-27T11:51:51Z</time>
      </trkpt>
      <trkpt lat="44.47022" lon="5.99773">
        <ele>862.9206543</ele>
        <time>2011-11-27T11:51:53Z</time>
      </trkpt>
      <trkpt lat="44.47036" lon="5.99776">
        <ele>861.4787598</ele>
        <time>2011-11-27T11:51:55Z</time>
      </trkpt>
      <trkpt lat="44.47062" lon="5.99794">
        <ele>858.5944824</ele>
        <time>2011-11-27T11:51:59Z</time>
      </trkpt>
      <trkpt lat="44.47082" lon="5.998">
        <ele>857.1525879</ele>
        <time>2011-11-27T11:52:02Z</time>
      </trkpt>
      <trkpt lat="44.47089" lon="5.998">
        <ele>855.7106934</ele>
        <time>2011-11-27T11:52:03Z</time>
      </trkpt>
      <trkpt lat="44.47099" lon="5.99802">
        <ele>854.7492676</ele>
        <time>2011-11-27T11:52:05Z</time>
      </trkpt>
      <trkpt lat="44.47102" lon="5.99813">
        <ele>852.8266602</ele>
        <time>2011-11-27T11:52:07Z</time>
      </trkpt>
      <trkpt lat="44.47109" lon="5.99836">
        <ele>851.3847656</ele>
        <time>2011-11-27T11:52:10Z</time>
      </trkpt>
      <trkpt lat="44.47139" lon="5.99867">
        <ele>849.9428711</ele>
        <time>2011-11-27T11:52:14Z</time>
      </trkpt>
      <trkpt lat="44.47161" lon="5.99816">
        <ele>848.0202637</ele>
        <time>2011-11-27T11:52:17Z</time>
      </trkpt>
      <trkpt lat="44.47171" lon="5.99809">
        <ele>847.0588379</ele>
        <time>2011-11-27T11:52:19Z</time>
      </trkpt>
      <trkpt lat="44.47194" lon="5.99802">
        <ele>844.6555176</ele>
        <time>2011-11-27T11:52:23Z</time>
      </trkpt>
      <trkpt lat="44.472" lon="5.99808">
        <ele>844.1750488</ele>
        <time>2011-11-27T11:52:24Z</time>
      </trkpt>
      <trkpt lat="44.47215" lon="5.99821">
        <ele>842.2521973</ele>
        <time>2011-11-27T11:52:27Z</time>
      </trkpt>
      <trkpt lat="44.4723" lon="5.99836">
        <ele>840.8100586</ele>
        <time>2011-11-27T11:52:30Z</time>
      </trkpt>
      <trkpt lat="44.47241" lon="5.99839">
        <ele>839.848877</ele>
        <time>2011-11-27T11:52:32Z</time>
      </trkpt>
      <trkpt lat="44.47261" lon="5.99836">
        <ele>836.9648438</ele>
        <time>2011-11-27T11:52:35Z</time>
      </trkpt>
      <trkpt lat="44.47288" lon="5.99832">
        <ele>834.5617676</ele>
        <time>2011-11-27T11:52:39Z</time>
      </trkpt>
      <trkpt lat="44.47299" lon="5.99829">
        <ele>833.1196289</ele>
        <time>2011-11-27T11:52:41Z</time>
      </trkpt>
      <trkpt lat="44.47308" lon="5.9982">
        <ele>831.1972656</ele>
        <time>2011-11-27T11:52:44Z</time>
      </trkpt>
      <trkpt lat="44.47316" lon="5.99818">
        <ele>829.755127</ele>
        <time>2011-11-27T11:52:46Z</time>
      </trkpt>
      <trkpt lat="44.47316" lon="5.99835">
        <ele>828.3132324</ele>
        <time>2011-11-27T11:52:50Z</time>
      </trkpt>
      <trkpt lat="44.47309" lon="5.99839">
        <ele>828.3132324</ele>
        <time>2011-11-27T11:52:52Z</time>
      </trkpt>
      <trkpt lat="44.47262" lon="5.99859">
        <ele>824.9484863</ele>
        <time>2011-11-27T11:53:01Z</time>
      </trkpt>
      <trkpt lat="44.47255" lon="5.99863">
        <ele>824.9484863</ele>
        <time>2011-11-27T11:53:02Z</time>
      </trkpt>
      <trkpt lat="44.47236" lon="5.99873">
        <ele>822.545166</ele>
        <time>2011-11-27T11:53:05Z</time>
      </trkpt>
      <trkpt lat="44.47229" lon="5.99873">
        <ele>821.5837402</ele>
        <time>2011-11-27T11:53:06Z</time>
      </trkpt>
      <trkpt lat="44.47217" lon="5.99874">
        <ele>820.1418457</ele>
        <time>2011-11-27T11:53:08Z</time>
      </trkpt>
      <trkpt lat="44.47199" lon="5.99885">
        <ele>817.2580566</ele>
        <time>2011-11-27T11:53:12Z</time>
      </trkpt>
      <trkpt lat="44.47199" lon="5.99908">
        <ele>815.3354492</ele>
        <time>2011-11-27T11:53:16Z</time>
      </trkpt>
      <trkpt lat="44.47201" lon="5.99928">
        <ele>813.4128418</ele>
        <time>2011-11-27T11:53:19Z</time>
      </trkpt>
      <trkpt lat="44.47182" lon="5.99952">
        <ele>811.4899902</ele>
        <time>2011-11-27T11:53:25Z</time>
      </trkpt>
      <trkpt lat="44.47178" lon="5.99951">
        <ele>810.0478516</ele>
        <time>2011-11-27T11:53:26Z</time>
      </trkpt>
      <trkpt lat="44.47146" lon="5.99954">
        <ele>807.6447754</ele>
        <time>2011-11-27T11:53:32Z</time>
      </trkpt>
      <trkpt lat="44.47131" lon="5.99974">
        <ele>806.2026367</ele>
        <time>2011-11-27T11:53:35Z</time>
      </trkpt>
      <trkpt lat="44.47129" lon="5.99981">
        <ele>804.7607422</ele>
        <time>2011-11-27T11:53:36Z</time>
      </trkpt>
      <trkpt lat="44.47112" lon="6.00007">
        <ele>802.3574219</ele>
        <time>2011-11-27T11:53:42Z</time>
      </trkpt>
      <trkpt lat="44.47093" lon="6.00005">
        <ele>801.3962402</ele>
        <time>2011-11-27T11:53:46Z</time>
      </trkpt>
      <trkpt lat="44.47076" lon="6">
        <ele>799.9543457</ele>
        <time>2011-11-27T11:53:49Z</time>
      </trkpt>
      <trkpt lat="44.47054" lon="6.00003">
        <ele>798.0317383</ele>
        <time>2011-11-27T11:53:57Z</time>
      </trkpt>
      <trkpt lat="44.47055" lon="6.00004">
        <ele>798.0317383</ele>
        <time>2011-11-27T11:55:17Z</time>
      </trkpt>
      <trkpt lat="44.4706" lon="6.00015">
        <ele>798.0317383</ele>
        <time>2011-11-27T11:55:21Z</time>
      </trkpt>
      <trkpt lat="44.47082" lon="6.00023">
        <ele>795.6281738</ele>
        <time>2011-11-27T11:55:26Z</time>
      </trkpt>
      <trkpt lat="44.47098" lon="6.00031">
        <ele>794.1862793</ele>
        <time>2011-11-27T11:55:29Z</time>
      </trkpt>
      <trkpt lat="44.47109" lon="6.0004">
        <ele>792.7443848</ele>
        <time>2011-11-27T11:55:31Z</time>
      </trkpt>
      <trkpt lat="44.47113" lon="6.00045">
        <ele>792.2636719</ele>
        <time>2011-11-27T11:55:32Z</time>
      </trkpt>
      <trkpt lat="44.47129" lon="6.00082">
        <ele>789.8603516</ele>
        <time>2011-11-27T11:55:37Z</time>
      </trkpt>
      <trkpt lat="44.47132" lon="6.00098">
        <ele>787.9377441</ele>
        <time>2011-11-27T11:55:39Z</time>
      </trkpt>
      <trkpt lat="44.47137" lon="6.00121">
        <ele>786.4958496</ele>
        <time>2011-11-27T11:55:42Z</time>
      </trkpt>
      <trkpt lat="44.47139" lon="6.00135">
        <ele>785.5344238</ele>
        <time>2011-11-27T11:55:44Z</time>
      </trkpt>
      <trkpt lat="44.47131" lon="6.00163">
        <ele>782.1699219</ele>
        <time>2011-11-27T11:55:48Z</time>
      </trkpt>
      <trkpt lat="44.47126" lon="6.00177">
        <ele>781.2087402</ele>
        <time>2011-11-27T11:55:50Z</time>
      </trkpt>
      <trkpt lat="44.47124" lon="6.00213">
        <ele>778.8051758</ele>
        <time>2011-11-27T11:55:54Z</time>
      </trkpt>
      <trkpt lat="44.47127" lon="6.00251">
        <ele>776.4018555</ele>
        <time>2011-11-27T11:55:58Z</time>
      </trkpt>
      <trkpt lat="44.47129" lon="6.0027">
        <ele>773.5180664</ele>
        <time>2011-11-27T11:56:00Z</time>
      </trkpt>
      <trkpt lat="44.47131" lon="6.0032">
        <ele>770.6340332</ele>
        <time>2011-11-27T11:56:06Z</time>
      </trkpt>
      <trkpt lat="44.47127" lon="6.00334">
        <ele>769.6728516</ele>
        <time>2011-11-27T11:56:08Z</time>
      </trkpt>
      <trkpt lat="44.47117" lon="6.00351">
        <ele>767.75</ele>
        <time>2011-11-27T11:56:11Z</time>
      </trkpt>
      <trkpt lat="44.47108" lon="6.00359">
        <ele>766.7888184</ele>
        <time>2011-11-27T11:56:13Z</time>
      </trkpt>
      <trkpt lat="44.47083" lon="6.00416">
        <ele>764.385498</ele>
        <time>2011-11-27T11:56:21Z</time>
      </trkpt>
      <trkpt lat="44.4707" lon="6.00437">
        <ele>761.9821777</ele>
        <time>2011-11-27T11:56:24Z</time>
      </trkpt>
      <trkpt lat="44.47056" lon="6.00448">
        <ele>760.0593262</ele>
        <time>2011-11-27T11:56:27Z</time>
      </trkpt>
      <trkpt lat="44.47047" lon="6.00468">
        <ele>758.1369629</ele>
        <time>2011-11-27T11:56:31Z</time>
      </trkpt>
      <trkpt lat="44.47064" lon="6.00496">
        <ele>754.7722168</ele>
        <time>2011-11-27T11:56:37Z</time>
      </trkpt>
      <trkpt lat="44.47068" lon="6.00497">
        <ele>754.7722168</ele>
        <time>2011-11-27T11:56:38Z</time>
      </trkpt>
      <trkpt lat="44.4709" lon="6.00473">
        <ele>751.8884277</ele>
        <time>2011-11-27T11:56:44Z</time>
      </trkpt>
      <trkpt lat="44.47097" lon="6.00446">
        <ele>750.927002</ele>
        <time>2011-11-27T11:56:47Z</time>
      </trkpt>
      <trkpt lat="44.47105" lon="6.00433">
        <ele>749.4851074</ele>
        <time>2011-11-27T11:56:49Z</time>
      </trkpt>
      <trkpt lat="44.47122" lon="6.00422">
        <ele>747.5622559</ele>
        <time>2011-11-27T11:56:52Z</time>
      </trkpt>
      <trkpt lat="44.47132" lon="6.0042">
        <ele>746.6010742</ele>
        <time>2011-11-27T11:56:54Z</time>
      </trkpt>
      <trkpt lat="44.47154" lon="6.00404">
        <ele>744.6782227</ele>
        <time>2011-11-27T11:56:58Z</time>
      </trkpt>
      <trkpt lat="44.47159" lon="6.0039">
        <ele>743.717041</ele>
        <time>2011-11-27T11:57:00Z</time>
      </trkpt>
      <trkpt lat="44.47183" lon="6.00373">
        <ele>741.7944336</ele>
        <time>2011-11-27T11:57:05Z</time>
      </trkpt>
      <trkpt lat="44.47199" lon="6.00354">
        <ele>739.8718262</ele>
        <time>2011-11-27T11:57:08Z</time>
      </trkpt>
      <trkpt lat="44.47217" lon="6.00327">
        <ele>738.4299316</ele>
        <time>2011-11-27T11:57:12Z</time>
      </trkpt>
      <trkpt lat="44.47232" lon="6.00311">
        <ele>735.0654297</ele>
        <time>2011-11-27T11:57:15Z</time>
      </trkpt>
      <trkpt lat="44.47247" lon="6.0031">
        <ele>734.1040039</ele>
        <time>2011-11-27T11:57:17Z</time>
      </trkpt>
      <trkpt lat="44.47262" lon="6.00309">
        <ele>732.6621094</ele>
        <time>2011-11-27T11:57:19Z</time>
      </trkpt>
      <trkpt lat="44.47275" lon="6.0031">
        <ele>731.7004395</ele>
        <time>2011-11-27T11:57:21Z</time>
      </trkpt>
      <trkpt lat="44.47306" lon="6.0032">
        <ele>730.2585449</ele>
        <time>2011-11-27T11:57:27Z</time>
      </trkpt>
      <trkpt lat="44.47323" lon="6.00355">
        <ele>728.3359375</ele>
        <time>2011-11-27T11:57:33Z</time>
      </trkpt>
      <trkpt lat="44.47307" lon="6.00404">
        <ele>725.4519043</ele>
        <time>2011-11-27T11:57:41Z</time>
      </trkpt>
      <trkpt lat="44.47288" lon="6.004">
        <ele>724.0100098</ele>
        <time>2011-11-27T11:57:44Z</time>
      </trkpt>
      <trkpt lat="44.4725" lon="6.00385">
        <ele>722.0874023</ele>
        <time>2011-11-27T11:57:50Z</time>
      </trkpt>
      <trkpt lat="44.4724" lon="6.00384">
        <ele>721.1262207</ele>
        <time>2011-11-27T11:57:52Z</time>
      </trkpt>
      <trkpt lat="44.4722" lon="6.00398">
        <ele>719.2036133</ele>
        <time>2011-11-27T11:57:56Z</time>
      </trkpt>
      <trkpt lat="44.47214" lon="6.0041">
        <ele>718.7229004</ele>
        <time>2011-11-27T11:57:58Z</time>
      </trkpt>
      <trkpt lat="44.47208" lon="6.00424">
        <ele>717.2810059</ele>
        <time>2011-11-27T11:58:01Z</time>
      </trkpt>
      <trkpt lat="44.47201" lon="6.00446">
        <ele>715.8388672</ele>
        <time>2011-11-27T11:58:05Z</time>
      </trkpt>
      <trkpt lat="44.47193" lon="6.00481">
        <ele>714.3967285</ele>
        <time>2011-11-27T11:58:10Z</time>
      </trkpt>
      <trkpt lat="44.47194" lon="6.00499">
        <ele>712.4741211</ele>
        <time>2011-11-27T11:58:13Z</time>
      </trkpt>
      <trkpt lat="44.4721" lon="6.00514">
        <ele>711.0322266</ele>
        <time>2011-11-27T11:58:17Z</time>
      </trkpt>
      <trkpt lat="44.47248" lon="6.00517">
        <ele>708.1484375</ele>
        <time>2011-11-27T11:58:23Z</time>
      </trkpt>
      <trkpt lat="44.47269" lon="6.00529">
        <ele>706.2255859</ele>
        <time>2011-11-27T11:58:27Z</time>
      </trkpt>
      <trkpt lat="44.4728" lon="6.0054">
        <ele>706.2255859</ele>
        <time>2011-11-27T11:58:29Z</time>
      </trkpt>
      <trkpt lat="44.47302" lon="6.00545">
        <ele>703.3417969</ele>
        <time>2011-11-27T11:58:33Z</time>
      </trkpt>
      <trkpt lat="44.47306" lon="6.00546">
        <ele>702.3803711</ele>
        <time>2011-11-27T11:58:34Z</time>
      </trkpt>
      <trkpt lat="44.4731" lon="6.00597">
        <ele>700.4580078</ele>
        <time>2011-11-27T11:58:42Z</time>
      </trkpt>
      <trkpt lat="44.47307" lon="6.00602">
        <ele>700.4580078</ele>
        <time>2011-11-27T11:58:43Z</time>
      </trkpt>
      <trkpt lat="44.47298" lon="6.00612">
        <ele>700.4580078</ele>
        <time>2011-11-27T11:58:45Z</time>
      </trkpt>
      <trkpt lat="44.47284" lon="6.0064">
        <ele>699.015625</ele>
        <time>2011-11-27T11:58:49Z</time>
      </trkpt>
      <trkpt lat="44.47279" lon="6.00657">
        <ele>698.5349121</ele>
        <time>2011-11-27T11:58:51Z</time>
      </trkpt>
      <trkpt lat="44.47258" lon="6.00675">
        <ele>698.0544434</ele>
        <time>2011-11-27T11:58:55Z</time>
      </trkpt>
      <trkpt lat="44.47245" lon="6.0068">
        <ele>696.6125488</ele>
        <time>2011-11-27T11:58:57Z</time>
      </trkpt>
      <trkpt lat="44.47221" lon="6.00705">
        <ele>695.1704102</ele>
        <time>2011-11-27T11:59:01Z</time>
      </trkpt>
      <trkpt lat="44.47172" lon="6.00741">
        <ele>690.8444824</ele>
        <time>2011-11-27T11:59:08Z</time>
      </trkpt>
      <trkpt lat="44.47156" lon="6.00747">
        <ele>688.9221191</ele>
        <time>2011-11-27T11:59:10Z</time>
      </trkpt>
      <trkpt lat="44.47127" lon="6.0077">
        <ele>686.0380859</ele>
        <time>2011-11-27T11:59:14Z</time>
      </trkpt>
      <trkpt lat="44.4708" lon="6.00789">
        <ele>683.1538086</ele>
        <time>2011-11-27T11:59:20Z</time>
      </trkpt>
      <trkpt lat="44.47054" lon="6.00809">
        <ele>680.7507324</ele>
        <time>2011-11-27T11:59:24Z</time>
      </trkpt>
      <trkpt lat="44.47047" lon="6.00815">
        <ele>679.7893066</ele>
        <time>2011-11-27T11:59:25Z</time>
      </trkpt>
      <trkpt lat="44.47014" lon="6.00876">
        <ele>675.4633789</ele>
        <time>2011-11-27T11:59:33Z</time>
      </trkpt>
      <trkpt lat="44.46997" lon="6.00913">
        <ele>674.0214844</ele>
        <time>2011-11-27T11:59:38Z</time>
      </trkpt>
      <trkpt lat="44.46964" lon="6.00979">
        <ele>670.1762695</ele>
        <time>2011-11-27T11:59:46Z</time>
      </trkpt>
      <trkpt lat="44.46924" lon="6.01063">
        <ele>666.8115234</ele>
        <time>2011-11-27T11:59:56Z</time>
      </trkpt>
      <trkpt lat="44.4692" lon="6.01073">
        <ele>666.8115234</ele>
        <time>2011-11-27T11:59:57Z</time>
      </trkpt>
      <trkpt lat="44.46893" lon="6.01133">
        <ele>663.4470215</ele>
        <time>2011-11-27T12:00:03Z</time>
      </trkpt>
      <trkpt lat="44.46889" lon="6.01141">
        <ele>663.4470215</ele>
        <time>2011-11-27T12:00:04Z</time>
      </trkpt>
      <trkpt lat="44.46841" lon="6.01241">
        <ele>660.0822754</ele>
        <time>2011-11-27T12:00:17Z</time>
      </trkpt>
      <trkpt lat="44.46786" lon="6.01358">
        <ele>656.7177734</ele>
        <time>2011-11-27T12:00:30Z</time>
      </trkpt>
      <trkpt lat="44.46741" lon="6.01453">
        <ele>653.3532715</ele>
        <time>2011-11-27T12:00:40Z</time>
      </trkpt>
      <trkpt lat="44.46736" lon="6.01462">
        <ele>653.3532715</ele>
        <time>2011-11-27T12:00:41Z</time>
      </trkpt>
      <trkpt lat="44.46698" lon="6.01543">
        <ele>649.9885254</ele>
        <time>2011-11-27T12:00:49Z</time>
      </trkpt>
      <trkpt lat="44.4667" lon="6.01603">
        <ele>648.065918</ele>
        <time>2011-11-27T12:00:55Z</time>
      </trkpt>
      <trkpt lat="44.46637" lon="6.01669">
        <ele>645.6625977</ele>
        <time>2011-11-27T12:01:02Z</time>
      </trkpt>
      <trkpt lat="44.46584" lon="6.0178">
        <ele>641.8173828</ele>
        <time>2011-11-27T12:01:14Z</time>
      </trkpt>
      <trkpt lat="44.46508" lon="6.01901">
        <ele>638.9335938</ele>
        <time>2011-11-27T12:01:30Z</time>
      </trkpt>
      <trkpt lat="44.4643" lon="6.01938">
        <ele>637.0107422</ele>
        <time>2011-11-27T12:01:42Z</time>
      </trkpt>
      <trkpt lat="44.46315" lon="6.01969">
        <ele>634.126709</ele>
        <time>2011-11-27T12:01:59Z</time>
      </trkpt>
      <trkpt lat="44.4619" lon="6.02015">
        <ele>631.2429199</ele>
        <time>2011-11-27T12:02:19Z</time>
      </trkpt>
      <trkpt lat="44.46061" lon="6.02064">
        <ele>628.3588867</ele>
        <time>2011-11-27T12:02:39Z</time>
      </trkpt>
      <trkpt lat="44.45945" lon="6.02111">
        <ele>624.9943848</ele>
        <time>2011-11-27T12:02:56Z</time>
      </trkpt>
      <trkpt lat="44.45767" lon="6.02176">
        <ele>622.1103516</ele>
        <time>2011-11-27T12:03:23Z</time>
      </trkpt>
      <trkpt lat="44.45683" lon="6.02172">
        <ele>621.1491699</ele>
        <time>2011-11-27T12:03:35Z</time>
      </trkpt>
      <trkpt lat="44.45624" lon="6.02186">
        <ele>619.2263184</ele>
        <time>2011-11-27T12:03:44Z</time>
      </trkpt>
      <trkpt lat="44.45544" lon="6.02199">
        <ele>617.3037109</ele>
        <time>2011-11-27T12:03:56Z</time>
      </trkpt>
      <trkpt lat="44.45506" lon="6.02214">
        <ele>616.3422852</ele>
        <time>2011-11-27T12:04:02Z</time>
      </trkpt>
      <trkpt lat="44.45419" lon="6.02234">
        <ele>612.4970703</ele>
        <time>2011-11-27T12:04:15Z</time>
      </trkpt>
      <trkpt lat="44.45392" lon="6.02237">
        <ele>612.0166016</ele>
        <time>2011-11-27T12:04:19Z</time>
      </trkpt>
      <trkpt lat="44.45369" lon="6.02272">
        <ele>610.5744629</ele>
        <time>2011-11-27T12:04:26Z</time>
      </trkpt>
      <trkpt lat="44.45351" lon="6.02425">
        <ele>607.2099609</ele>
        <time>2011-11-27T12:04:41Z</time>
      </trkpt>
      <trkpt lat="44.45343" lon="6.02464">
        <ele>606.729248</ele>
        <time>2011-11-27T12:04:45Z</time>
      </trkpt>
      <trkpt lat="44.45364" lon="6.02588">
        <ele>605.7680664</ele>
        <time>2011-11-27T12:04:59Z</time>
      </trkpt>
      <trkpt lat="44.45373" lon="6.02623">
        <ele>605.2873535</ele>
        <time>2011-11-27T12:05:03Z</time>
      </trkpt>
      <trkpt lat="44.45446" lon="6.02748">
        <ele>602.8837891</ele>
        <time>2011-11-27T12:05:20Z</time>
      </trkpt>
      <trkpt lat="44.45534" lon="6.02903">
        <ele>600.4807129</ele>
        <time>2011-11-27T12:05:41Z</time>
      </trkpt>
      <trkpt lat="44.45594" lon="6.03005">
        <ele>600</ele>
        <time>2011-11-27T12:05:57Z</time>
      </trkpt>
      <trkpt lat="44.45635" lon="6.03074">
        <ele>600</ele>
        <time>2011-11-27T12:06:08Z</time>
      </trkpt>
      <trkpt lat="44.45686" lon="6.03199">
        <ele>600.9611816</ele>
        <time>2011-11-27T12:06:28Z</time>
      </trkpt>
      <trkpt lat="44.45695" lon="6.03254">
        <ele>602.4030762</ele>
        <time>2011-11-27T12:06:40Z</time>
      </trkpt>
      <trkpt lat="44.45698" lon="6.03265">
        <ele>602.4030762</ele>
        <time>2011-11-27T12:06:42Z</time>
      </trkpt>
      <trkpt lat="44.45704" lon="6.03301">
        <ele>602.4030762</ele>
        <time>2011-11-27T12:06:48Z</time>
      </trkpt>
      <trkpt lat="44.45709" lon="6.03328">
        <ele>600.9611816</ele>
        <time>2011-11-27T12:06:53Z</time>
      </trkpt>
      <trkpt lat="44.45712" lon="6.03339">
        <ele>600.9611816</ele>
        <time>2011-11-27T12:07:04Z</time>
      </trkpt>
      <trkpt lat="44.45713" lon="6.03346">
        <ele>600.9611816</ele>
        <time>2011-11-27T12:07:25Z</time>
      </trkpt>
      <trkpt lat="44.45729" lon="6.03351">
        <ele>600.9611816</ele>
        <time>2011-11-27T12:07:31Z</time>
      </trkpt>
      <trkpt lat="44.4578" lon="6.03358">
        <ele>601.4418945</ele>
        <time>2011-11-27T12:07:45Z</time>
      </trkpt>
      <trkpt lat="44.45856" lon="6.03368">
        <ele>602.4030762</ele>
        <time>2011-11-27T12:08:03Z</time>
      </trkpt>
      <trkpt lat="44.45962" lon="6.03381">
        <ele>604.8066406</ele>
        <time>2011-11-27T12:08:28Z</time>
      </trkpt>
      <trkpt lat="44.46023" lon="6.0339">
        <ele>608.6518555</ele>
        <time>2011-11-27T12:08:46Z</time>
      </trkpt>
      <trkpt lat="44.46067" lon="6.03396">
        <ele>610.09375</ele>
        <time>2011-11-27T12:09:01Z</time>
      </trkpt>
      <trkpt lat="44.46116" lon="6.03379">
        <ele>613.9389648</ele>
        <time>2011-11-27T12:09:18Z</time>
      </trkpt>
      <trkpt lat="44.46119" lon="6.0338">
        <ele>613.9389648</ele>
        <time>2011-11-27T12:09:19Z</time>
      </trkpt>
      <trkpt lat="44.46168" lon="6.03396">
        <ele>614.4196777</ele>
        <time>2011-11-27T12:09:35Z</time>
      </trkpt>
      <trkpt lat="44.46242" lon="6.03416">
        <ele>617.7841797</ele>
        <time>2011-11-27T12:09:57Z</time>
      </trkpt>
      <trkpt lat="44.46347" lon="6.03431">
        <ele>618.7456055</ele>
        <time>2011-11-27T12:10:24Z</time>
      </trkpt>
      <trkpt lat="44.46471" lon="6.03443">
        <ele>618.7456055</ele>
        <time>2011-11-27T12:10:51Z</time>
      </trkpt>
      <trkpt lat="44.46555" lon="6.03435">
        <ele>620.1877441</ele>
        <time>2011-11-27T12:11:11Z</time>
      </trkpt>
      <trkpt lat="44.46675" lon="6.03416">
        <ele>622.1103516</ele>
        <time>2011-11-27T12:11:38Z</time>
      </trkpt>
      <trkpt lat="44.46797" lon="6.03396">
        <ele>621.1491699</ele>
        <time>2011-11-27T12:12:02Z</time>
      </trkpt>
      <trkpt lat="44.4695" lon="6.03372">
        <ele>618.7456055</ele>
        <time>2011-11-27T12:12:26Z</time>
      </trkpt>
      <trkpt lat="44.47063" lon="6.03365">
        <ele>619.2263184</ele>
        <time>2011-11-27T12:12:46Z</time>
      </trkpt>
      <trkpt lat="44.47153" lon="6.03379">
        <ele>621.1491699</ele>
        <time>2011-11-27T12:13:07Z</time>
      </trkpt>
      <trkpt lat="44.4723" lon="6.03386">
        <ele>622.5910645</ele>
        <time>2011-11-27T12:13:29Z</time>
      </trkpt>
      <trkpt lat="44.47285" lon="6.03397">
        <ele>624.5136719</ele>
        <time>2011-11-27T12:13:48Z</time>
      </trkpt>
      <trkpt lat="44.47294" lon="6.03399">
        <ele>624.9943848</ele>
        <time>2011-11-27T12:14:02Z</time>
      </trkpt>
      <trkpt lat="44.47294" lon="6.03399">
        <ele>624.9943848</ele>
        <time>2011-11-27T12:14:18Z</time>
      </trkpt>
      <trkpt lat="44.47283" lon="6.03396">
        <ele>625.4748535</ele>
        <time>2011-11-27T12:14:26Z</time>
      </trkpt>
      <trkpt lat="44.4731" lon="6.03352">
        <ele>624.5136719</ele>
        <time>2011-11-27T12:14:39Z</time>
      </trkpt>
      <trkpt lat="44.47348" lon="6.03334">
        <ele>625.4748535</ele>
        <time>2011-11-27T12:14:52Z</time>
      </trkpt>
      <trkpt lat="44.47398" lon="6.03312">
        <ele>625.4748535</ele>
        <time>2011-11-27T12:15:08Z</time>
      </trkpt>
      <trkpt lat="44.47458" lon="6.03286">
        <ele>625.4748535</ele>
        <time>2011-11-27T12:15:24Z</time>
      </trkpt>
      <trkpt lat="44.47471" lon="6.03279">
        <ele>625.9555664</ele>
        <time>2011-11-27T12:15:27Z</time>
      </trkpt>
      <trkpt lat="44.47502" lon="6.03251">
        <ele>625.9555664</ele>
        <time>2011-11-27T12:15:35Z</time>
      </trkpt>
      <trkpt lat="44.47526" lon="6.03235">
        <ele>626.4362793</ele>
        <time>2011-11-27T12:15:40Z</time>
      </trkpt>
      <trkpt lat="44.47612" lon="6.03242">
        <ele>627.3977051</ele>
        <time>2011-11-27T12:15:59Z</time>
      </trkpt>
      <trkpt lat="44.47613" lon="6.03242">
        <ele>627.3977051</ele>
        <time>2011-11-27T12:16:09Z</time>
      </trkpt>
      <trkpt lat="44.47613" lon="6.03242">
        <ele>627.8781738</ele>
        <time>2011-11-27T12:16:25Z</time>
      </trkpt>
      <trkpt lat="44.47655" lon="6.03246">
        <ele>628.8395996</ele>
        <time>2011-11-27T12:16:40Z</time>
      </trkpt>
      <trkpt lat="44.47724" lon="6.03263">
        <ele>631.2429199</ele>
        <time>2011-11-27T12:17:00Z</time>
      </trkpt>
      <trkpt lat="44.47771" lon="6.03262">
        <ele>634.126709</ele>
        <time>2011-11-27T12:17:17Z</time>
      </trkpt>
      <trkpt lat="44.47804" lon="6.03261">
        <ele>637.4914551</ele>
        <time>2011-11-27T12:17:31Z</time>
      </trkpt>
      <trkpt lat="44.47847" lon="6.03261">
        <ele>639.4140625</ele>
        <time>2011-11-27T12:17:48Z</time>
      </trkpt>
      <trkpt lat="44.47912" lon="6.03264">
        <ele>637.4914551</ele>
        <time>2011-11-27T12:18:01Z</time>
      </trkpt>
      <trkpt lat="44.47918" lon="6.03265">
        <ele>637.0107422</ele>
        <time>2011-11-27T12:18:02Z</time>
      </trkpt>
      <trkpt lat="44.47961" lon="6.03241">
        <ele>635.0881348</ele>
        <time>2011-11-27T12:18:09Z</time>
      </trkpt>
      <trkpt lat="44.47982" lon="6.032">
        <ele>635.0881348</ele>
        <time>2011-11-27T12:18:14Z</time>
      </trkpt>
      <trkpt lat="44.4801" lon="6.03171">
        <ele>635.0881348</ele>
        <time>2011-11-27T12:18:20Z</time>
      </trkpt>
      <trkpt lat="44.4807" lon="6.03152">
        <ele>637.972168</ele>
        <time>2011-11-27T12:18:36Z</time>
      </trkpt>
      <trkpt lat="44.48138" lon="6.03122">
        <ele>639.4140625</ele>
        <time>2011-11-27T12:18:54Z</time>
      </trkpt>
      <trkpt lat="44.48198" lon="6.03099">
        <ele>642.2980957</ele>
        <time>2011-11-27T12:19:11Z</time>
      </trkpt>
      <trkpt lat="44.48229" lon="6.03092">
        <ele>642.7788086</ele>
        <time>2011-11-27T12:19:21Z</time>
      </trkpt>
      <trkpt lat="44.48244" lon="6.03065">
        <ele>641.3366699</ele>
        <time>2011-11-27T12:19:26Z</time>
      </trkpt>
      <trkpt lat="44.48284" lon="6.02929">
        <ele>638.9335938</ele>
        <time>2011-11-27T12:19:43Z</time>
      </trkpt>
      <trkpt lat="44.48315" lon="6.02853">
        <ele>638.9335938</ele>
        <time>2011-11-27T12:19:54Z</time>
      </trkpt>
      <trkpt lat="44.48351" lon="6.0281">
        <ele>641.3366699</ele>
        <time>2011-11-27T12:20:09Z</time>
      </trkpt>
      <trkpt lat="44.4839" lon="6.028">
        <ele>644.7011719</ele>
        <time>2011-11-27T12:20:27Z</time>
      </trkpt>
      <trkpt lat="44.48423" lon="6.02775">
        <ele>648.5463867</ele>
        <time>2011-11-27T12:20:44Z</time>
      </trkpt>
      <trkpt lat="44.48451" lon="6.02731">
        <ele>650.949707</ele>
        <time>2011-11-27T12:21:04Z</time>
      </trkpt>
      <trkpt lat="44.4846" lon="6.02694">
        <ele>653.3532715</ele>
        <time>2011-11-27T12:21:17Z</time>
      </trkpt>
      <trkpt lat="44.48474" lon="6.02654">
        <ele>657.1984863</ele>
        <time>2011-11-27T12:21:34Z</time>
      </trkpt>
      <trkpt lat="44.48496" lon="6.02613">
        <ele>660.5629883</ele>
        <time>2011-11-27T12:21:53Z</time>
      </trkpt>
      <trkpt lat="44.48529" lon="6.02575">
        <ele>662.9663086</ele>
        <time>2011-11-27T12:22:14Z</time>
      </trkpt>
      <trkpt lat="44.48571" lon="6.02523">
        <ele>665.3696289</ele>
        <time>2011-11-27T12:22:39Z</time>
      </trkpt>
      <trkpt lat="44.486" lon="6.02483">
        <ele>668.734375</ele>
        <time>2011-11-27T12:22:58Z</time>
      </trkpt>
      <trkpt lat="44.48602" lon="6.02476">
        <ele>668.734375</ele>
        <time>2011-11-27T12:23:01Z</time>
      </trkpt>
      <trkpt lat="44.48604" lon="6.02472">
        <ele>669.2150879</ele>
        <time>2011-11-27T12:23:03Z</time>
      </trkpt>
      <trkpt lat="44.48627" lon="6.0243">
        <ele>673.0603027</ele>
        <time>2011-11-27T12:23:23Z</time>
      </trkpt>
      <trkpt lat="44.48646" lon="6.02392">
        <ele>675.9440918</ele>
        <time>2011-11-27T12:23:40Z</time>
      </trkpt>
      <trkpt lat="44.48675" lon="6.02376">
        <ele>678.3474121</ele>
        <time>2011-11-27T12:23:56Z</time>
      </trkpt>
      <trkpt lat="44.48717" lon="6.02365">
        <ele>680.7507324</ele>
        <time>2011-11-27T12:24:15Z</time>
      </trkpt>
      <trkpt lat="44.48773" lon="6.02356">
        <ele>682.6733398</ele>
        <time>2011-11-27T12:24:40Z</time>
      </trkpt>
      <trkpt lat="44.48822" lon="6.02358">
        <ele>685.0769043</ele>
        <time>2011-11-27T12:25:01Z</time>
      </trkpt>
      <trkpt lat="44.48861" lon="6.02364">
        <ele>687.4799805</ele>
        <time>2011-11-27T12:25:19Z</time>
      </trkpt>
      <trkpt lat="44.48897" lon="6.02373">
        <ele>690.3640137</ele>
        <time>2011-11-27T12:25:36Z</time>
      </trkpt>
      <trkpt lat="44.48938" lon="6.02375">
        <ele>693.7285156</ele>
        <time>2011-11-27T12:25:56Z</time>
      </trkpt>
      <trkpt lat="44.48977" lon="6.0237">
        <ele>696.6125488</ele>
        <time>2011-11-27T12:26:17Z</time>
      </trkpt>
      <trkpt lat="44.49013" lon="6.02358">
        <ele>699.4963379</ele>
        <time>2011-11-27T12:26:37Z</time>
      </trkpt>
      <trkpt lat="44.49037" lon="6.02345">
        <ele>702.3803711</ele>
        <time>2011-11-27T12:26:52Z</time>
      </trkpt>
      <trkpt lat="44.49056" lon="6.02336">
        <ele>703.3417969</ele>
        <time>2011-11-27T12:27:03Z</time>
      </trkpt>
      <trkpt lat="44.49084" lon="6.02323">
        <ele>706.7062988</ele>
        <time>2011-11-27T12:27:20Z</time>
      </trkpt>
      <trkpt lat="44.49112" lon="6.02309">
        <ele>709.1096191</ele>
        <time>2011-11-27T12:27:36Z</time>
      </trkpt>
      <trkpt lat="44.49137" lon="6.02298">
        <ele>711.9936523</ele>
        <time>2011-11-27T12:27:50Z</time>
      </trkpt>
      <trkpt lat="44.4917" lon="6.02298">
        <ele>713.9160156</ele>
        <time>2011-11-27T12:28:07Z</time>
      </trkpt>
      <trkpt lat="44.49201" lon="6.02302">
        <ele>714.8774414</ele>
        <time>2011-11-27T12:28:22Z</time>
      </trkpt>
      <trkpt lat="44.49249" lon="6.02295">
        <ele>715.3581543</ele>
        <time>2011-11-27T12:28:40Z</time>
      </trkpt>
      <trkpt lat="44.49304" lon="6.02261">
        <ele>716.800293</ele>
        <time>2011-11-27T12:29:00Z</time>
      </trkpt>
      <trkpt lat="44.49368" lon="6.02262">
        <ele>718.2421875</ele>
        <time>2011-11-27T12:29:18Z</time>
      </trkpt>
      <trkpt lat="44.49439" lon="6.02267">
        <ele>718.7229004</ele>
        <time>2011-11-27T12:29:37Z</time>
      </trkpt>
      <trkpt lat="44.49443" lon="6.02268">
        <ele>718.7229004</ele>
        <time>2011-11-27T12:29:38Z</time>
      </trkpt>
      <trkpt lat="44.49509" lon="6.0232">
        <ele>716.3195801</ele>
        <time>2011-11-27T12:29:52Z</time>
      </trkpt>
      <trkpt lat="44.49534" lon="6.02338">
        <ele>714.8774414</ele>
        <time>2011-11-27T12:29:56Z</time>
      </trkpt>
      <trkpt lat="44.4958" lon="6.02371">
        <ele>711.5129395</ele>
        <time>2011-11-27T12:30:02Z</time>
      </trkpt>
      <trkpt lat="44.49589" lon="6.02376">
        <ele>711.5129395</ele>
        <time>2011-11-27T12:30:03Z</time>
      </trkpt>
      <trkpt lat="44.49643" lon="6.02405">
        <ele>707.6677246</ele>
        <time>2011-11-27T12:30:09Z</time>
      </trkpt>
      <trkpt lat="44.49652" lon="6.02408">
        <ele>707.6677246</ele>
        <time>2011-11-27T12:30:10Z</time>
      </trkpt>
      <trkpt lat="44.49722" lon="6.02413">
        <ele>704.7836914</ele>
        <time>2011-11-27T12:30:17Z</time>
      </trkpt>
      <trkpt lat="44.49756" lon="6.02417">
        <ele>703.3417969</ele>
        <time>2011-11-27T12:30:21Z</time>
      </trkpt>
      <trkpt lat="44.49785" lon="6.02374">
        <ele>701.8999023</ele>
        <time>2011-11-27T12:30:28Z</time>
      </trkpt>
      <trkpt lat="44.498" lon="6.02312">
        <ele>701.8999023</ele>
        <time>2011-11-27T12:30:35Z</time>
      </trkpt>
      <trkpt lat="44.49832" lon="6.02279">
        <ele>701.4191895</ele>
        <time>2011-11-27T12:30:42Z</time>
      </trkpt>
      <trkpt lat="44.49914" lon="6.02249">
        <ele>699.9770508</ele>
        <time>2011-11-27T12:30:58Z</time>
      </trkpt>
      <trkpt lat="44.49954" lon="6.02274">
        <ele>700.9384766</ele>
        <time>2011-11-27T12:31:06Z</time>
      </trkpt>
      <trkpt lat="44.49947" lon="6.02323">
        <ele>702.861084</ele>
        <time>2011-11-27T12:31:20Z</time>
      </trkpt>
      <trkpt lat="44.49948" lon="6.02364">
        <ele>706.2255859</ele>
        <time>2011-11-27T12:31:36Z</time>
      </trkpt>
      <trkpt lat="44.49974" lon="6.02385">
        <ele>709.590332</ele>
        <time>2011-11-27T12:31:53Z</time>
      </trkpt>
      <trkpt lat="44.50004" lon="6.02384">
        <ele>711.9936523</ele>
        <time>2011-11-27T12:32:09Z</time>
      </trkpt>
      <trkpt lat="44.50035" lon="6.02382">
        <ele>714.3967285</ele>
        <time>2011-11-27T12:32:25Z</time>
      </trkpt>
      <trkpt lat="44.50066" lon="6.02376">
        <ele>717.2810059</ele>
        <time>2011-11-27T12:32:42Z</time>
      </trkpt>
      <trkpt lat="44.50098" lon="6.02371">
        <ele>720.1647949</ele>
        <time>2011-11-27T12:33:01Z</time>
      </trkpt>
      <trkpt lat="44.50129" lon="6.02359">
        <ele>723.0488281</ele>
        <time>2011-11-27T12:33:19Z</time>
      </trkpt>
      <trkpt lat="44.50155" lon="6.02347">
        <ele>725.9326172</ele>
        <time>2011-11-27T12:33:35Z</time>
      </trkpt>
      <trkpt lat="44.50185" lon="6.02338">
        <ele>728.8166504</ele>
        <time>2011-11-27T12:33:53Z</time>
      </trkpt>
      <trkpt lat="44.5022" lon="6.02342">
        <ele>732.1813965</ele>
        <time>2011-11-27T12:34:12Z</time>
      </trkpt>
      <trkpt lat="44.50258" lon="6.02366">
        <ele>733.623291</ele>
        <time>2011-11-27T12:34:32Z</time>
      </trkpt>
      <trkpt lat="44.50296" lon="6.02395">
        <ele>735.0654297</ele>
        <time>2011-11-27T12:34:51Z</time>
      </trkpt>
      <trkpt lat="44.50333" lon="6.02426">
        <ele>736.5073242</ele>
        <time>2011-11-27T12:35:08Z</time>
      </trkpt>
      <trkpt lat="44.50379" lon="6.02465">
        <ele>739.8718262</ele>
        <time>2011-11-27T12:35:31Z</time>
      </trkpt>
      <trkpt lat="44.50411" lon="6.02492">
        <ele>741.3137207</ele>
        <time>2011-11-27T12:35:47Z</time>
      </trkpt>
      <trkpt lat="44.50455" lon="6.02531">
        <ele>742.2751465</ele>
        <time>2011-11-27T12:36:07Z</time>
      </trkpt>
      <trkpt lat="44.50507" lon="6.0255">
        <ele>742.2751465</ele>
        <time>2011-11-27T12:36:23Z</time>
      </trkpt>
      <trkpt lat="44.50567" lon="6.02582">
        <ele>743.2363281</ele>
        <time>2011-11-27T12:36:41Z</time>
      </trkpt>
      <trkpt lat="44.5059" lon="6.026">
        <ele>743.2363281</ele>
        <time>2011-11-27T12:36:48Z</time>
      </trkpt>
      <trkpt lat="44.50603" lon="6.02601">
        <ele>743.2363281</ele>
        <time>2011-11-27T12:36:51Z</time>
      </trkpt>
      <trkpt lat="44.50618" lon="6.02612">
        <ele>743.2363281</ele>
        <time>2011-11-27T12:36:55Z</time>
      </trkpt>
      <trkpt lat="44.50682" lon="6.02686">
        <ele>741.7944336</ele>
        <time>2011-11-27T12:37:11Z</time>
      </trkpt>
      <trkpt lat="44.50727" lon="6.0275">
        <ele>744.1977539</ele>
        <time>2011-11-27T12:37:28Z</time>
      </trkpt>
      <trkpt lat="44.50795" lon="6.02845">
        <ele>742.2751465</ele>
        <time>2011-11-27T12:37:49Z</time>
      </trkpt>
      <trkpt lat="44.50831" lon="6.02887">
        <ele>739.8718262</ele>
        <time>2011-11-27T12:37:55Z</time>
      </trkpt>
      <trkpt lat="44.50843" lon="6.02907">
        <ele>738.4299316</ele>
        <time>2011-11-27T12:37:57Z</time>
      </trkpt>
      <trkpt lat="44.50862" lon="6.02939">
        <ele>736.5073242</ele>
        <time>2011-11-27T12:38:00Z</time>
      </trkpt>
      <trkpt lat="44.50873" lon="6.02964">
        <ele>735.0654297</ele>
        <time>2011-11-27T12:38:02Z</time>
      </trkpt>
      <trkpt lat="44.50901" lon="6.03026">
        <ele>733.1425781</ele>
        <time>2011-11-27T12:38:07Z</time>
      </trkpt>
      <trkpt lat="44.50965" lon="6.03118">
        <ele>731.7004395</ele>
        <time>2011-11-27T12:38:17Z</time>
      </trkpt>
      <trkpt lat="44.51027" lon="6.03175">
        <ele>734.1040039</ele>
        <time>2011-11-27T12:38:29Z</time>
      </trkpt>
      <trkpt lat="44.51065" lon="6.03221">
        <ele>737.4685059</ele>
        <time>2011-11-27T12:38:43Z</time>
      </trkpt>
      <trkpt lat="44.51122" lon="6.03271">
        <ele>738.9106445</ele>
        <time>2011-11-27T12:39:01Z</time>
      </trkpt>
      <trkpt lat="44.51214" lon="6.03321">
        <ele>737.4685059</ele>
        <time>2011-11-27T12:39:23Z</time>
      </trkpt>
      <trkpt lat="44.51272" lon="6.03347">
        <ele>733.623291</ele>
        <time>2011-11-27T12:39:31Z</time>
      </trkpt>
      <trkpt lat="44.5131" lon="6.03365">
        <ele>731.2199707</ele>
        <time>2011-11-27T12:39:35Z</time>
      </trkpt>
      <trkpt lat="44.51329" lon="6.03378">
        <ele>730.2585449</ele>
        <time>2011-11-27T12:39:37Z</time>
      </trkpt>
      <trkpt lat="44.51349" lon="6.03393">
        <ele>728.8166504</ele>
        <time>2011-11-27T12:39:39Z</time>
      </trkpt>
      <trkpt lat="44.51377" lon="6.03419">
        <ele>726.894043</ele>
        <time>2011-11-27T12:39:42Z</time>
      </trkpt>
      <trkpt lat="44.51468" lon="6.03487">
        <ele>723.529541</ele>
        <time>2011-11-27T12:39:52Z</time>
      </trkpt>
      <trkpt lat="44.51524" lon="6.03505">
        <ele>721.1262207</ele>
        <time>2011-11-27T12:39:58Z</time>
      </trkpt>
      <trkpt lat="44.51635" lon="6.03533">
        <ele>720.6455078</ele>
        <time>2011-11-27T12:40:12Z</time>
      </trkpt>
      <trkpt lat="44.51726" lon="6.03545">
        <ele>720.6455078</ele>
        <time>2011-11-27T12:40:27Z</time>
      </trkpt>
      <trkpt lat="44.51782" lon="6.03534">
        <ele>721.6066895</ele>
        <time>2011-11-27T12:40:39Z</time>
      </trkpt>
      <trkpt lat="44.5179" lon="6.03534">
        <ele>722.0874023</ele>
        <time>2011-11-27T12:40:41Z</time>
      </trkpt>
      <trkpt lat="44.51866" lon="6.03574">
        <ele>723.0488281</ele>
        <time>2011-11-27T12:40:58Z</time>
      </trkpt>
      <trkpt lat="44.51957" lon="6.03611">
        <ele>723.0488281</ele>
        <time>2011-11-27T12:41:15Z</time>
      </trkpt>
      <trkpt lat="44.52074" lon="6.03637">
        <ele>723.529541</ele>
        <time>2011-11-27T12:41:36Z</time>
      </trkpt>
      <trkpt lat="44.52159" lon="6.03668">
        <ele>724.9714355</ele>
        <time>2011-11-27T12:41:55Z</time>
      </trkpt>
      <trkpt lat="44.5225" lon="6.03754">
        <ele>725.9326172</ele>
        <time>2011-11-27T12:42:17Z</time>
      </trkpt>
      <trkpt lat="44.52319" lon="6.0381">
        <ele>727.8552246</ele>
        <time>2011-11-27T12:42:36Z</time>
      </trkpt>
      <trkpt lat="44.5241" lon="6.03855">
        <ele>728.8166504</ele>
        <time>2011-11-27T12:42:55Z</time>
      </trkpt>
      <trkpt lat="44.525" lon="6.03912">
        <ele>728.8166504</ele>
        <time>2011-11-27T12:43:13Z</time>
      </trkpt>
      <trkpt lat="44.52542" lon="6.03953">
        <ele>729.2971191</ele>
        <time>2011-11-27T12:43:24Z</time>
      </trkpt>
      <trkpt lat="44.52627" lon="6.04044">
        <ele>730.7392578</ele>
        <time>2011-11-27T12:43:49Z</time>
      </trkpt>
      <trkpt lat="44.5268" lon="6.04085">
        <ele>732.6621094</ele>
        <time>2011-11-27T12:44:08Z</time>
      </trkpt>
      <trkpt lat="44.52728" lon="6.04105">
        <ele>735.0654297</ele>
        <time>2011-11-27T12:44:26Z</time>
      </trkpt>
      <trkpt lat="44.52781" lon="6.04124">
        <ele>737.4685059</ele>
        <time>2011-11-27T12:44:46Z</time>
      </trkpt>
      <trkpt lat="44.52831" lon="6.04147">
        <ele>740.3525391</ele>
        <time>2011-11-27T12:45:05Z</time>
      </trkpt>
      <trkpt lat="44.52886" lon="6.04178">
        <ele>743.2363281</ele>
        <time>2011-11-27T12:45:26Z</time>
      </trkpt>
      <trkpt lat="44.52938" lon="6.0421">
        <ele>746.1203613</ele>
        <time>2011-11-27T12:45:46Z</time>
      </trkpt>
      <trkpt lat="44.52994" lon="6.04245">
        <ele>749.4851074</ele>
        <time>2011-11-27T12:46:10Z</time>
      </trkpt>
      <trkpt lat="44.53049" lon="6.04281">
        <ele>751.8884277</ele>
        <time>2011-11-27T12:46:32Z</time>
      </trkpt>
      <trkpt lat="44.53112" lon="6.04311">
        <ele>752.3688965</ele>
        <time>2011-11-27T12:46:53Z</time>
      </trkpt>
      <trkpt lat="44.53172" lon="6.04334">
        <ele>754.291748</ele>
        <time>2011-11-27T12:47:13Z</time>
      </trkpt>
      <trkpt lat="44.53209" lon="6.04348">
        <ele>756.2141113</ele>
        <time>2011-11-27T12:47:27Z</time>
      </trkpt>
      <trkpt lat="44.53251" lon="6.04357">
        <ele>759.0981445</ele>
        <time>2011-11-27T12:47:44Z</time>
      </trkpt>
      <trkpt lat="44.53289" lon="6.04366">
        <ele>761.020752</ele>
        <time>2011-11-27T12:48:01Z</time>
      </trkpt>
      <trkpt lat="44.53338" lon="6.04396">
        <ele>761.9821777</ele>
        <time>2011-11-27T12:48:17Z</time>
      </trkpt>
      <trkpt lat="44.53357" lon="6.04414">
        <ele>761.9821777</ele>
        <time>2011-11-27T12:48:24Z</time>
      </trkpt>
      <trkpt lat="44.53368" lon="6.04424">
        <ele>761.9821777</ele>
        <time>2011-11-27T12:48:27Z</time>
      </trkpt>
      <trkpt lat="44.53429" lon="6.04489">
        <ele>761.9821777</ele>
        <time>2011-11-27T12:48:45Z</time>
      </trkpt>
      <trkpt lat="44.53441" lon="6.04504">
        <ele>761.9821777</ele>
        <time>2011-11-27T12:48:49Z</time>
      </trkpt>
      <trkpt lat="44.53515" lon="6.04619">
        <ele>761.9821777</ele>
        <time>2011-11-27T12:49:12Z</time>
      </trkpt>
      <trkpt lat="44.53576" lon="6.04718">
        <ele>762.9433594</ele>
        <time>2011-11-27T12:49:34Z</time>
      </trkpt>
      <trkpt lat="44.53623" lon="6.0481">
        <ele>764.385498</ele>
        <time>2011-11-27T12:49:53Z</time>
      </trkpt>
      <trkpt lat="44.53687" lon="6.04907">
        <ele>765.8276367</ele>
        <time>2011-11-27T12:50:16Z</time>
      </trkpt>
      <trkpt lat="44.53732" lon="6.04959">
        <ele>769.6728516</ele>
        <time>2011-11-27T12:50:34Z</time>
      </trkpt>
      <trkpt lat="44.5376" lon="6.05019">
        <ele>770.6340332</ele>
        <time>2011-11-27T12:50:52Z</time>
      </trkpt>
      <trkpt lat="44.53763" lon="6.05093">
        <ele>771.5952148</ele>
        <time>2011-11-27T12:51:09Z</time>
      </trkpt>
      <trkpt lat="44.53759" lon="6.05153">
        <ele>770.6340332</ele>
        <time>2011-11-27T12:51:19Z</time>
      </trkpt>
      <trkpt lat="44.53774" lon="6.05156">
        <ele>770.1533203</ele>
        <time>2011-11-27T12:51:22Z</time>
      </trkpt>
      <trkpt lat="44.5378" lon="6.05162">
        <ele>769.6728516</ele>
        <time>2011-11-27T12:51:26Z</time>
      </trkpt>
      <trkpt lat="44.53768" lon="6.0521">
        <ele>769.1921387</ele>
        <time>2011-11-27T12:51:28Z</time>
      </trkpt>
      <trkpt lat="44.53775" lon="6.05232">
        <ele>769.1921387</ele>
        <time>2011-11-27T12:51:31Z</time>
      </trkpt>
      <trkpt lat="44.53768" lon="6.05271">
        <ele>768.2307129</ele>
        <time>2011-11-27T12:51:37Z</time>
      </trkpt>
      <trkpt lat="44.53751" lon="6.05296">
        <ele>766.3081055</ele>
        <time>2011-11-27T12:51:43Z</time>
      </trkpt>
      <trkpt lat="44.53749" lon="6.05323">
        <ele>764.8662109</ele>
        <time>2011-11-27T12:51:50Z</time>
      </trkpt>
      <trkpt lat="44.53799" lon="6.05397">
        <ele>763.4240723</ele>
        <time>2011-11-27T12:52:07Z</time>
      </trkpt>
      <trkpt lat="44.53868" lon="6.05484">
        <ele>760.0593262</ele>
        <time>2011-11-27T12:52:22Z</time>
      </trkpt>
      <trkpt lat="44.53873" lon="6.05491">
        <ele>760.0593262</ele>
        <time>2011-11-27T12:52:23Z</time>
      </trkpt>
      <trkpt lat="44.53918" lon="6.05546">
        <ele>757.1755371</ele>
        <time>2011-11-27T12:52:32Z</time>
      </trkpt>
      <trkpt lat="44.5398" lon="6.0562">
        <ele>754.291748</ele>
        <time>2011-11-27T12:52:47Z</time>
      </trkpt>
      <trkpt lat="44.54027" lon="6.05676">
        <ele>751.4077148</ele>
        <time>2011-11-27T12:53:02Z</time>
      </trkpt>
      <trkpt lat="44.54034" lon="6.05685">
        <ele>750.927002</ele>
        <time>2011-11-27T12:53:05Z</time>
      </trkpt>
      <trkpt lat="44.54044" lon="6.05697">
        <ele>750.4465332</ele>
        <time>2011-11-27T12:53:08Z</time>
      </trkpt>
      <trkpt lat="44.54066" lon="6.05723">
        <ele>749.4851074</ele>
        <time>2011-11-27T12:53:14Z</time>
      </trkpt>
      <trkpt lat="44.54096" lon="6.05759">
        <ele>748.0432129</ele>
        <time>2011-11-27T12:53:22Z</time>
      </trkpt>
      <trkpt lat="44.54111" lon="6.05777">
        <ele>747.081543</ele>
        <time>2011-11-27T12:53:26Z</time>
      </trkpt>
      <trkpt lat="44.54166" lon="6.05842">
        <ele>744.1977539</ele>
        <time>2011-11-27T12:53:42Z</time>
      </trkpt>
      <trkpt lat="44.54236" lon="6.0593">
        <ele>741.3137207</ele>
        <time>2011-11-27T12:53:57Z</time>
      </trkpt>
      <trkpt lat="44.54289" lon="6.05999">
        <ele>739.3911133</ele>
        <time>2011-11-27T12:54:10Z</time>
      </trkpt>
      <trkpt lat="44.54307" lon="6.06022">
        <ele>739.3911133</ele>
        <time>2011-11-27T12:54:15Z</time>
      </trkpt>
      <trkpt lat="44.5432" lon="6.06038">
        <ele>739.3911133</ele>
        <time>2011-11-27T12:54:19Z</time>
      </trkpt>
      <trkpt lat="44.54333" lon="6.06054">
        <ele>739.8718262</ele>
        <time>2011-11-27T12:54:23Z</time>
      </trkpt>
      <trkpt lat="44.54396" lon="6.06128">
        <ele>742.7558594</ele>
        <time>2011-11-27T12:54:45Z</time>
      </trkpt>
      <trkpt lat="44.54443" lon="6.06184">
        <ele>743.717041</ele>
        <time>2011-11-27T12:55:03Z</time>
      </trkpt>
      <trkpt lat="44.54458" lon="6.06203">
        <ele>744.1977539</ele>
        <time>2011-11-27T12:55:08Z</time>
      </trkpt>
      <trkpt lat="44.54494" lon="6.06247">
        <ele>743.2363281</ele>
        <time>2011-11-27T12:55:20Z</time>
      </trkpt>
      <trkpt lat="44.54519" lon="6.06278">
        <ele>742.7558594</ele>
        <time>2011-11-27T12:55:28Z</time>
      </trkpt>
      <trkpt lat="44.54553" lon="6.063">
        <ele>740.8330078</ele>
        <time>2011-11-27T12:55:36Z</time>
      </trkpt>
      <trkpt lat="44.54557" lon="6.06302">
        <ele>742.7558594</ele>
        <time>2011-11-27T12:55:38Z</time>
      </trkpt>
      <trkpt lat="44.54561" lon="6.06308">
        <ele>743.2363281</ele>
        <time>2011-11-27T12:55:43Z</time>
      </trkpt>
      <trkpt lat="44.54577" lon="6.06356">
        <ele>741.7944336</ele>
        <time>2011-11-27T12:55:53Z</time>
      </trkpt>
      <trkpt lat="44.54629" lon="6.06414">
        <ele>740.3525391</ele>
        <time>2011-11-27T12:56:09Z</time>
      </trkpt>
      <trkpt lat="44.54685" lon="6.06485">
        <ele>740.3525391</ele>
        <time>2011-11-27T12:56:26Z</time>
      </trkpt>
      <trkpt lat="44.54753" lon="6.06566">
        <ele>740.3525391</ele>
        <time>2011-11-27T12:56:45Z</time>
      </trkpt>
      <trkpt lat="44.5482" lon="6.06643">
        <ele>740.8330078</ele>
        <time>2011-11-27T12:57:05Z</time>
      </trkpt>
      <trkpt lat="44.54845" lon="6.06672">
        <ele>740.3525391</ele>
        <time>2011-11-27T12:57:12Z</time>
      </trkpt>
      <trkpt lat="44.54879" lon="6.06713">
        <ele>740.3525391</ele>
        <time>2011-11-27T12:57:24Z</time>
      </trkpt>
      <trkpt lat="44.54941" lon="6.06788">
        <ele>740.3525391</ele>
        <time>2011-11-27T12:57:43Z</time>
      </trkpt>
      <trkpt lat="44.55012" lon="6.06875">
        <ele>740.3525391</ele>
        <time>2011-11-27T12:58:05Z</time>
      </trkpt>
      <trkpt lat="44.55075" lon="6.06954">
        <ele>740.8330078</ele>
        <time>2011-11-27T12:58:25Z</time>
      </trkpt>
      <trkpt lat="44.55151" lon="6.07036">
        <ele>739.3911133</ele>
        <time>2011-11-27T12:58:44Z</time>
      </trkpt>
      <trkpt lat="44.55188" lon="6.07083">
        <ele>738.9106445</ele>
        <time>2011-11-27T12:58:56Z</time>
      </trkpt>
      <trkpt lat="44.55253" lon="6.07164">
        <ele>737.4685059</ele>
        <time>2011-11-27T12:59:13Z</time>
      </trkpt>
      <trkpt lat="44.55297" lon="6.07221">
        <ele>736.5073242</ele>
        <time>2011-11-27T12:59:25Z</time>
      </trkpt>
      <trkpt lat="44.55359" lon="6.07299">
        <ele>736.0266113</ele>
        <time>2011-11-27T12:59:44Z</time>
      </trkpt>
      <trkpt lat="44.55387" lon="6.07325">
        <ele>732.6621094</ele>
        <time>2011-11-27T12:59:51Z</time>
      </trkpt>
      <trkpt lat="44.55402" lon="6.0734">
        <ele>735.5458984</ele>
        <time>2011-11-27T12:59:55Z</time>
      </trkpt>
      <trkpt lat="44.55413" lon="6.07353">
        <ele>735.0654297</ele>
        <time>2011-11-27T12:59:58Z</time>
      </trkpt>
      <trkpt lat="44.5542" lon="6.07363">
        <ele>735.5458984</ele>
        <time>2011-11-27T13:00:00Z</time>
      </trkpt>
      <trkpt lat="44.55438" lon="6.07387">
        <ele>735.0654297</ele>
        <time>2011-11-27T13:00:05Z</time>
      </trkpt>
      <trkpt lat="44.55488" lon="6.07459">
        <ele>733.623291</ele>
        <time>2011-11-27T13:00:23Z</time>
      </trkpt>
      <trkpt lat="44.5551" lon="6.07482">
        <ele>733.623291</ele>
        <time>2011-11-27T13:00:32Z</time>
      </trkpt>
      <trkpt lat="44.5555" lon="6.0752">
        <ele>733.1425781</ele>
        <time>2011-11-27T13:00:47Z</time>
      </trkpt>
      <trkpt lat="44.55587" lon="6.07564">
        <ele>733.1425781</ele>
        <time>2011-11-27T13:01:02Z</time>
      </trkpt>
      <trkpt lat="44.55595" lon="6.07574">
        <ele>733.1425781</ele>
        <time>2011-11-27T13:01:07Z</time>
      </trkpt>
      <trkpt lat="44.55634" lon="6.07606">
        <ele>733.623291</ele>
        <time>2011-11-27T13:01:11Z</time>
      </trkpt>
      <trkpt lat="44.55622" lon="6.07526">
        <ele>734.1040039</ele>
        <time>2011-11-27T13:01:23Z</time>
      </trkpt>
      <trkpt lat="44.55637" lon="6.07536">
        <ele>734.5847168</ele>
        <time>2011-11-27T13:01:28Z</time>
      </trkpt>
      <trkpt lat="44.55662" lon="6.07559">
        <ele>734.5847168</ele>
        <time>2011-11-27T13:01:36Z</time>
      </trkpt>
      <trkpt lat="44.55681" lon="6.07577">
        <ele>736.0266113</ele>
        <time>2011-11-27T13:01:45Z</time>
      </trkpt>
      <trkpt lat="44.55698" lon="6.07574">
        <ele>736.5073242</ele>
        <time>2011-11-27T13:01:49Z</time>
      </trkpt>
      <trkpt lat="44.55726" lon="6.07515">
        <ele>737.9492188</ele>
        <time>2011-11-27T13:02:07Z</time>
      </trkpt>
      <trkpt lat="44.55754" lon="6.0747">
        <ele>740.3525391</ele>
        <time>2011-11-27T13:02:25Z</time>
      </trkpt>
      <trkpt lat="44.55757" lon="6.07467">
        <ele>740.3525391</ele>
        <time>2011-11-27T13:02:37Z</time>
      </trkpt>
      <trkpt lat="44.55757" lon="6.07467">
        <ele>740.3525391</ele>
        <time>2011-11-27T13:02:46Z</time>
      </trkpt>
      <trkpt lat="44.55766" lon="6.07459">
        <ele>740.8330078</ele>
        <time>2011-11-27T13:02:49Z</time>
      </trkpt>
      <trkpt lat="44.55806" lon="6.07443">
        <ele>742.2751465</ele>
        <time>2011-11-27T13:03:03Z</time>
      </trkpt>
      <trkpt lat="44.55812" lon="6.07443">
        <ele>742.7558594</ele>
        <time>2011-11-27T13:03:11Z</time>
      </trkpt>
      <trkpt lat="44.55834" lon="6.07452">
        <ele>743.2363281</ele>
        <time>2011-11-27T13:03:24Z</time>
      </trkpt>
      <trkpt lat="44.55864" lon="6.07481">
        <ele>744.1977539</ele>
        <time>2011-11-27T13:03:39Z</time>
      </trkpt>
      <trkpt lat="44.55874" lon="6.0749">
        <ele>744.1977539</ele>
        <time>2011-11-27T13:03:48Z</time>
      </trkpt>
      <trkpt lat="44.55875" lon="6.07492">
        <ele>744.1977539</ele>
        <time>2011-11-27T13:03:49Z</time>
      </trkpt>
      <trkpt lat="44.55877" lon="6.07493">
        <ele>744.6782227</ele>
        <time>2011-11-27T13:03:51Z</time>
      </trkpt>
      <trkpt lat="44.55892" lon="6.07507">
        <ele>744.6782227</ele>
        <time>2011-11-27T13:04:02Z</time>
      </trkpt>
      <trkpt lat="44.55892" lon="6.07507">
        <ele>744.6782227</ele>
        <time>2011-11-27T13:04:03Z</time>
      </trkpt>
      <trkpt lat="44.55875" lon="6.07476">
        <ele>745.1589355</ele>
        <time>2011-11-27T13:04:09Z</time>
      </trkpt>
      <trkpt lat="44.55868" lon="6.0747">
        <ele>745.6396484</ele>
        <time>2011-11-27T13:04:14Z</time>
      </trkpt>
      <trkpt lat="44.55851" lon="6.07486">
        <ele>744.6782227</ele>
        <time>2011-11-27T13:04:28Z</time>
      </trkpt>
      <trkpt lat="44.55828" lon="6.07512">
        <ele>745.6396484</ele>
        <time>2011-11-27T13:04:40Z</time>
      </trkpt>
      <trkpt lat="44.5583" lon="6.07514">
        <ele>745.1589355</ele>
        <time>2011-11-27T13:04:41Z</time>
      </trkpt>
      <trkpt lat="44.55844" lon="6.0752">
        <ele>745.1589355</ele>
        <time>2011-11-27T13:04:52Z</time>
      </trkpt>
      <trkpt lat="44.55853" lon="6.07513">
        <ele>745.1589355</ele>
        <time>2011-11-27T13:05:06Z</time>
      </trkpt>
      <trkpt lat="44.55862" lon="6.07504">
        <ele>745.1589355</ele>
        <time>2011-11-27T13:05:18Z</time>
      </trkpt>
      <trkpt lat="44.55844" lon="6.07431">
        <ele>743.717041</ele>
        <time>2011-11-27T13:05:35Z</time>
      </trkpt>
      <trkpt lat="44.55838" lon="6.07385">
        <ele>746.6010742</ele>
        <time>2011-11-27T13:05:47Z</time>
      </trkpt>
    </trkseg>
  </trk>
</gpx>